Time,TemperatureF,DewpointF,PressureIn,WindDirection,WindDirectionDegrees,WindSpeedMPH,WindSpeedGustMPH,Humidity,HourlyPrecipIn,Conditions,Clouds,dailyrainin,SoftwareType,DateUTC
2013-05-22 00:00:00,68.0,63.3,29.03,North,0,0.0,0.0,85,0.00,CLR,,0.04,WeatherDisplay:10.37,2013-05-22 04:00:00,
2013-05-22 00:01:00,68.0,63.3,29.03,North,0,0.0,0.0,85,0.00,CLR,,0.04,WeatherDisplay:10.37,2013-05-22 04:01:00,
2013-05-22 00:06:00,67.6,63.6,29.03,NNE,22,0.9,0.9,87,0.00,RA,,0.00,WeatherDisplay:10.37,2013-05-22 04:06:00,
2013-05-22 00:11:00,67.8,64.1,29.03,NNW,338,0.0,0.0,88,0.00,CLR,,0.00,WeatherDisplay:10.37,2013-05-22 04:11:00,
2013-05-22 00:16:00,67.6,64.0,29.03,NE,45,0.0,0.0,88,0.00,CLR,,0.00,WeatherDisplay:10.37,2013-05-22 04:16:00,
2013-05-22 00:17:00,67.6,64.0,29.03,NE,45,0.0,0.0,88,0.00,CLR,,0.00,WeatherDisplay:10.37,2013-05-22 04:17:00,
2013-05-22 00:21:00,67.6,64.3,29.03,NE,45,0.0,0.0,89,0.00,CLR,,0.00,WeatherDisplay:10.37,2013-05-22 04:21:00,
2013-05-22 00:22:00,67.6,64.3,29.03,NE,45,0.0,0.0,89,0.00,CLR,,0.00,WeatherDisplay:10.37,2013-05-22 04:22:00,
2013-05-22 00:27:00,67.5,63.8,29.03,West,270,0.0,0.0,88,0.00,CLR,,0.00,WeatherDisplay:10.37,2013-05-22 04:27:00,
2013-05-22 00:32:00,67.3,63.6,29.03,SE,135,0.0,0.0,88,0.00,CLR,,0.00,WeatherDisplay:10.37,2013-05-22 04:32:00,
2013-05-22 00:37:00,67.3,63.6,29.03,SE,135,0.0,0.0,88,0.00,CLR,,0.00,WeatherDisplay:10.37,2013-05-22 04:37:00,
2013-05-22 00:42:00,67.5,64.1,29.03,NE,45,0.0,0.0,89,0.00,CLR,,0.00,WeatherDisplay:10.37,2013-05-22 04:42:00,
2013-05-22 00:43:00,67.5,64.1,29.03,North,0,0.0,0.0,89,0.00,CLR,,0.00,WeatherDisplay:10.37,2013-05-22 04:43:00,
2013-05-22 00:47:00,67.5,64.1,29.03,NW,315,0.0,0.0,89,0.00,CLR,,0.00,WeatherDisplay:10.37,2013-05-22 04:47:00,
2013-05-22 00:48:00,67.5,64.1,29.03,NW,315,0.0,0.0,89,0.00,CLR,,0.00,WeatherDisplay:10.37,2013-05-22 04:48:00,
2013-05-22 00:52:00,67.3,63.9,29.03,NW,315,0.0,0.0,89,0.00,CLR,,0.00,WeatherDisplay:10.37,2013-05-22 04:52:00,
2013-05-22 00:53:00,67.3,63.9,29.03,NW,315,0.0,0.0,89,0.00,CLR,,0.00,WeatherDisplay:10.37,2013-05-22 04:53:00,
2013-05-22 00:57:00,67.1,64.4,29.03,SSW,202,0.0,0.0,91,0.00,CLR,,0.00,WeatherDisplay:10.37,2013-05-22 04:57:00,
2013-05-22 00:58:00,67.1,64.4,29.03,SSW,202,0.0,0.0,91,0.00,CLR,,0.00,WeatherDisplay:10.37,2013-05-22 04:58:00,
2013-05-22 01:02:00,67.1,64.4,29.03,SSE,158,0.0,0.0,91,0.00,CLR,,0.00,WeatherDisplay:10.37,2013-05-22 05:02:00,
2013-05-22 01:03:00,67.1,64.4,29.03,SSE,158,0.0,0.0,91,0.00,CLR,,0.00,WeatherDisplay:10.37,2013-05-22 05:03:00,
2013-05-22 01:07:00,67.1,64.4,29.03,SSE,158,0.0,0.0,91,0.00,CLR,,0.00,WeatherDisplay:10.37,2013-05-22 05:07:00,
2013-05-22 01:08:00,67.1,64.4,29.03,SSE,158,0.0,0.0,91,0.00,CLR,,0.00,WeatherDisplay:10.37,2013-05-22 05:08:00,
2013-05-22 01:09:00,67.1,64.4,29.03,SSE,158,0.0,0.0,91,0.00,CLR,,0.00,WeatherDisplay:10.37,2013-05-22 05:09:00,
2013-05-22 01:13:00,67.1,64.4,29.03,SE,135,0.0,0.0,91,0.00,CLR,,0.00,WeatherDisplay:10.37,2013-05-22 05:13:00,
2013-05-22 01:14:00,67.1,64.4,29.03,SE,135,0.0,0.0,91,0.00,CLR,,0.00,WeatherDisplay:10.37,2013-05-22 05:14:00,
2013-05-22 01:18:00,66.9,64.2,29.03,NE,45,0.0,0.0,91,0.00,CLR,,0.00,WeatherDisplay:10.37,2013-05-22 05:18:00,
2013-05-22 01:19:00,66.9,64.2,29.03,NE,45,0.0,0.0,91,0.00,CLR,,0.00,WeatherDisplay:10.37,2013-05-22 05:19:00,
2013-05-22 01:23:00,66.9,64.2,29.03,NE,45,0.0,0.0,91,0.00,CLR,,0.00,WeatherDisplay:10.37,2013-05-22 05:23:00,
2013-05-22 01:24:00,66.9,64.2,29.03,NNE,22,0.0,0.0,91,0.00,CLR,,0.00,WeatherDisplay:10.37,2013-05-22 05:24:00,
2013-05-22 01:28:00,66.7,64.0,29.03,NE,45,0.0,0.0,91,0.00,CLR,,0.00,WeatherDisplay:10.37,2013-05-22 05:28:00,
2013-05-22 01:29:00,66.7,64.0,29.03,NE,45,0.0,0.0,91,0.00,CLR,,0.00,WeatherDisplay:10.37,2013-05-22 05:29:00,
2013-05-22 01:33:00,66.7,64.0,29.03,NE,45,0.0,0.0,91,0.00,CLR,,0.00,WeatherDisplay:10.37,2013-05-22 05:33:00,
2013-05-22 01:34:00,66.7,64.0,29.03,NE,45,0.0,0.0,91,0.00,CLR,,0.00,WeatherDisplay:10.37,2013-05-22 05:34:00,
2013-05-22 01:35:00,66.7,64.0,29.03,NE,45,0.0,0.0,91,0.00,CLR,,0.00,WeatherDisplay:10.37,2013-05-22 05:35:00,
2013-05-22 01:38:00,66.7,64.0,29.03,NE,45,0.0,0.0,91,0.00,CLR,,0.00,WeatherDisplay:10.37,2013-05-22 05:38:00,
2013-05-22 01:39:00,66.7,64.0,29.03,NE,45,0.0,0.0,91,0.00,CLR,,0.00,WeatherDisplay:10.37,2013-05-22 05:39:00,
2013-05-22 01:40:00,66.7,64.0,29.03,NE,45,0.0,0.0,91,0.00,CLR,,0.00,WeatherDisplay:10.37,2013-05-22 05:40:00,
2013-05-22 01:44:00,66.9,64.2,29.03,NE,45,0.0,0.0,91,0.00,CLR,,0.00,WeatherDisplay:10.37,2013-05-22 05:44:00,
2013-05-22 01:45:00,66.9,64.2,29.03,NE,45,0.0,0.0,91,0.00,CLR,,0.00,WeatherDisplay:10.37,2013-05-22 05:45:00,
2013-05-22 01:49:00,66.9,64.2,29.03,NE,45,0.0,0.0,91,0.00,CLR,,0.00,WeatherDisplay:10.37,2013-05-22 05:49:00,
2013-05-22 01:50:00,66.9,64.2,29.03,NE,45,0.0,0.0,91,0.00,CLR,,0.00,WeatherDisplay:10.37,2013-05-22 05:50:00,
2013-05-22 01:54:00,66.9,64.2,29.03,NE,45,0.0,0.0,91,0.00,CLR,,0.00,WeatherDisplay:10.37,2013-05-22 05:54:00,
2013-05-22 01:55:00,66.9,64.2,29.03,NE,45,0.0,0.0,91,0.00,CLR,,0.00,WeatherDisplay:10.37,2013-05-22 05:55:00,
2013-05-22 01:59:00,66.7,64.0,29.03,NNE,22,0.0,0.0,91,0.00,CLR,,0.00,WeatherDisplay:10.37,2013-05-22 05:59:00,
2013-05-22 02:00:00,66.7,64.0,29.03,NNE,22,0.0,0.0,91,0.00,CLR,,0.00,WeatherDisplay:10.37,2013-05-22 06:00:00,
2013-05-22 02:05:00,66.6,63.9,29.03,NNE,22,0.0,0.0,91,0.00,CLR,,0.00,WeatherDisplay:10.37,2013-05-22 06:05:00,
2013-05-22 02:06:00,66.6,63.9,29.03,NNE,22,0.0,0.0,91,0.00,CLR,,0.00,WeatherDisplay:10.37,2013-05-22 06:06:00,
2013-05-22 02:10:00,66.6,63.9,29.03,NNE,22,0.0,0.0,91,0.00,CLR,,0.00,WeatherDisplay:10.37,2013-05-22 06:10:00,
2013-05-22 02:11:00,66.6,63.9,29.03,NNE,22,0.0,0.0,91,0.00,CLR,,0.00,WeatherDisplay:10.37,2013-05-22 06:11:00,
2013-05-22 02:15:00,66.4,63.7,29.03,NNE,22,0.0,0.0,91,0.00,CLR,,0.00,WeatherDisplay:10.37,2013-05-22 06:15:00,
2013-05-22 02:16:00,66.4,63.7,29.03,NNE,22,0.0,0.0,91,0.00,CLR,,0.00,WeatherDisplay:10.37,2013-05-22 06:16:00,
2013-05-22 02:20:00,66.4,64.0,29.00,NNE,22,0.0,0.0,92,0.00,CLR,,0.00,WeatherDisplay:10.37,2013-05-22 06:20:00,
2013-05-22 02:21:00,66.4,64.0,29.00,NNE,22,0.0,0.0,92,0.00,CLR,,0.00,WeatherDisplay:10.37,2013-05-22 06:21:00,
2013-05-22 02:26:00,66.2,63.8,29.00,North,0,0.0,0.0,92,0.00,CLR,,0.00,WeatherDisplay:10.37,2013-05-22 06:26:00,
2013-05-22 02:31:00,65.8,63.1,29.00,NW,315,0.0,0.0,91,0.00,CLR,,0.00,WeatherDisplay:10.37,2013-05-22 06:31:00,
2013-05-22 02:36:00,66.0,63.0,29.00,West,270,0.0,0.0,90,0.00,CLR,,0.00,WeatherDisplay:10.37,2013-05-22 06:36:00,
2013-05-22 02:37:00,65.8,63.1,29.00,West,270,0.0,0.0,91,0.00,CLR,,0.00,WeatherDisplay:10.37,2013-05-22 06:37:00,
2013-05-22 02:41:00,65.7,63.3,29.00,West,270,0.0,0.0,92,0.00,CLR,,0.00,WeatherDisplay:10.37,2013-05-22 06:41:00,
2013-05-22 02:42:00,65.7,63.3,29.00,West,270,0.0,0.0,92,0.00,CLR,,0.00,WeatherDisplay:10.37,2013-05-22 06:42:00,
2013-05-22 02:46:00,65.5,63.1,29.00,West,270,0.0,0.0,92,0.00,CLR,,0.00,WeatherDisplay:10.37,2013-05-22 06:46:00,
2013-05-22 02:47:00,65.5,63.1,29.00,West,270,0.0,0.0,92,0.00,CLR,,0.00,WeatherDisplay:10.37,2013-05-22 06:47:00,
2013-05-22 02:51:00,65.7,63.6,29.00,West,270,0.0,0.0,93,0.00,CLR,,0.00,WeatherDisplay:10.37,2013-05-22 06:51:00,
2013-05-22 02:52:00,65.7,63.6,29.00,West,270,0.0,0.0,93,0.00,CLR,,0.00,WeatherDisplay:10.37,2013-05-22 06:52:00,
2013-05-22 02:53:00,65.7,63.6,29.00,West,270,0.0,0.0,93,0.00,CLR,,0.00,WeatherDisplay:10.37,2013-05-22 06:53:00,
2013-05-22 02:56:00,65.7,63.6,29.00,SW,225,0.0,0.0,93,0.00,CLR,,0.00,WeatherDisplay:10.37,2013-05-22 06:56:00,
2013-05-22 02:57:00,65.7,63.6,29.00,SW,225,0.0,0.0,93,0.00,CLR,,0.00,WeatherDisplay:10.37,2013-05-22 06:57:00,
2013-05-22 02:58:00,65.7,63.6,29.00,SW,225,0.0,0.0,93,0.00,CLR,,0.00,WeatherDisplay:10.37,2013-05-22 06:58:00,
2013-05-22 03:01:00,65.7,63.6,29.00,SW,225,0.0,0.0,93,0.00,CLR,,0.00,WeatherDisplay:10.37,2013-05-22 07:01:00,
2013-05-22 03:02:00,65.7,63.6,29.00,SW,225,0.0,0.0,93,0.00,CLR,,0.00,WeatherDisplay:10.37,2013-05-22 07:02:00,
2013-05-22 03:03:00,65.5,63.4,29.00,SW,225,0.0,0.0,93,0.00,CLR,,0.00,WeatherDisplay:10.37,2013-05-22 07:03:00,
2013-05-22 03:07:00,65.5,63.4,29.00,SW,225,0.0,0.0,93,0.00,CLR,,0.00,WeatherDisplay:10.37,2013-05-22 07:07:00,
2013-05-22 03:08:00,65.5,63.4,29.00,SW,225,0.0,0.0,93,0.00,CLR,,0.00,WeatherDisplay:10.37,2013-05-22 07:08:00,
2013-05-22 03:09:00,65.3,63.2,29.00,SW,225,0.0,0.0,93,0.00,CLR,,0.00,WeatherDisplay:10.37,2013-05-22 07:09:00,
2013-05-22 03:12:00,65.3,63.2,29.00,SW,225,0.0,0.0,93,0.00,CLR,,0.00,WeatherDisplay:10.37,2013-05-22 07:12:00,
2013-05-22 03:13:00,65.3,63.2,29.00,SW,225,0.0,0.0,93,0.00,CLR,,0.00,WeatherDisplay:10.37,2013-05-22 07:13:00,
2013-05-22 03:14:00,65.3,63.2,29.00,SW,225,0.0,0.0,93,0.00,CLR,,0.00,WeatherDisplay:10.37,2013-05-22 07:14:00,
2013-05-22 03:17:00,65.3,63.2,29.00,SW,225,0.0,0.0,93,0.00,CLR,,0.00,WeatherDisplay:10.37,2013-05-22 07:17:00,
2013-05-22 03:18:00,65.3,63.2,29.00,SW,225,0.0,0.0,93,0.00,CLR,,0.00,WeatherDisplay:10.37,2013-05-22 07:18:00,
2013-05-22 03:19:00,65.1,63.0,29.00,SW,225,0.0,0.0,93,0.00,CLR,,0.00,WeatherDisplay:10.37,2013-05-22 07:19:00,
2013-05-22 03:22:00,65.1,63.0,29.00,SW,225,0.0,0.0,93,0.00,CLR,,0.00,WeatherDisplay:10.37,2013-05-22 07:22:00,
2013-05-22 03:23:00,65.1,63.0,29.00,SW,225,0.0,0.0,93,0.00,CLR,,0.00,WeatherDisplay:10.37,2013-05-22 07:23:00,
2013-05-22 03:24:00,65.1,63.0,29.00,SW,225,0.0,0.0,93,0.00,CLR,,0.00,WeatherDisplay:10.37,2013-05-22 07:24:00,
2013-05-22 03:28:00,64.9,62.9,29.00,SW,225,0.0,0.0,93,0.00,CLR,,0.00,WeatherDisplay:10.37,2013-05-22 07:28:00,
2013-05-22 03:29:00,64.9,62.9,29.00,SW,225,0.0,0.0,93,0.00,CLR,,0.00,WeatherDisplay:10.37,2013-05-22 07:29:00,
2013-05-22 03:33:00,64.9,62.9,29.00,SW,225,0.0,0.0,93,0.00,CLR,,0.00,WeatherDisplay:10.37,2013-05-22 07:33:00,
2013-05-22 03:35:00,64.9,62.9,29.00,SW,225,0.0,0.0,93,0.00,CLR,,0.00,WeatherDisplay:10.37,2013-05-22 07:35:00,
2013-05-22 03:38:00,64.9,62.9,29.00,SW,225,0.0,0.0,93,0.00,CLR,,0.00,WeatherDisplay:10.37,2013-05-22 07:38:00,
2013-05-22 03:39:00,64.9,62.9,29.00,SW,225,0.0,0.0,93,0.00,CLR,,0.00,WeatherDisplay:10.37,2013-05-22 07:39:00,
2013-05-22 03:40:00,64.9,62.9,29.00,SW,225,0.0,0.0,93,0.00,CLR,,0.00,WeatherDisplay:10.37,2013-05-22 07:40:00,
2013-05-22 03:43:00,64.9,62.9,29.00,SW,225,0.0,0.0,93,0.00,CLR,,0.00,WeatherDisplay:10.37,2013-05-22 07:43:00,
2013-05-22 03:44:00,64.9,62.9,29.00,SW,225,0.0,0.0,93,0.00,CLR,,0.00,WeatherDisplay:10.37,2013-05-22 07:44:00,
2013-05-22 03:45:00,64.9,62.9,29.00,SW,225,0.0,0.0,93,0.00,CLR,,0.00,WeatherDisplay:10.37,2013-05-22 07:45:00,
2013-05-22 03:48:00,64.8,62.7,29.00,SW,225,0.0,0.0,93,0.00,CLR,,0.00,WeatherDisplay:10.37,2013-05-22 07:48:00,
2013-05-22 03:49:00,64.8,62.7,29.00,SW,225,0.0,0.0,93,0.00,CLR,,0.00,WeatherDisplay:10.37,2013-05-22 07:49:00,
2013-05-22 03:50:00,64.8,62.7,29.00,SW,225,0.0,0.0,93,0.00,CLR,,0.00,WeatherDisplay:10.37,2013-05-22 07:50:00,
2013-05-22 03:53:00,64.9,62.9,29.00,SW,225,0.0,0.0,93,0.00,CLR,,0.00,WeatherDisplay:10.37,2013-05-22 07:53:00,
2013-05-22 03:54:00,64.9,62.9,29.00,SW,225,0.0,0.0,93,0.00,CLR,,0.00,WeatherDisplay:10.37,2013-05-22 07:54:00,
2013-05-22 03:55:00,64.9,62.9,29.00,SW,225,0.0,0.0,93,0.00,CLR,,0.00,WeatherDisplay:10.37,2013-05-22 07:55:00,
2013-05-22 03:59:00,64.8,62.7,29.00,SW,225,0.0,0.0,93,0.00,CLR,,0.00,WeatherDisplay:10.37,2013-05-22 07:59:00,
2013-05-22 04:00:00,64.6,62.5,29.00,SW,225,0.0,0.0,93,0.00,CLR,,0.00,WeatherDisplay:10.37,2013-05-22 08:00:00,
2013-05-22 04:04:00,64.6,62.5,29.00,SW,225,0.0,0.0,93,0.00,CLR,,0.00,WeatherDisplay:10.37,2013-05-22 08:04:00,
2013-05-22 04:05:00,64.6,62.5,29.00,SW,225,0.0,0.0,93,0.00,CLR,,0.00,WeatherDisplay:10.37,2013-05-22 08:05:00,
2013-05-22 04:09:00,64.4,62.3,29.00,NW,315,0.0,0.0,93,0.00,CLR,,0.00,WeatherDisplay:10.37,2013-05-22 08:09:00,
2013-05-22 04:10:00,64.4,62.3,29.00,NW,315,0.0,0.0,93,0.00,CLR,,0.00,WeatherDisplay:10.37,2013-05-22 08:10:00,
2013-05-22 04:14:00,64.4,62.3,29.00,North,0,0.0,0.0,93,0.00,CLR,,0.00,WeatherDisplay:10.37,2013-05-22 08:14:00,
2013-05-22 04:15:00,64.4,62.3,29.00,North,0,0.0,0.0,93,0.00,CLR,,0.00,WeatherDisplay:10.37,2013-05-22 08:15:00,
2013-05-22 04:16:00,64.6,62.5,29.00,North,0,0.0,0.0,93,0.00,CLR,,0.00,WeatherDisplay:10.37,2013-05-22 08:16:00,
2013-05-22 04:19:00,64.6,62.5,29.00,North,0,0.0,0.0,93,0.00,CLR,,0.00,WeatherDisplay:10.37,2013-05-22 08:19:00,
2013-05-22 04:20:00,64.4,62.3,29.00,North,0,0.0,0.0,93,0.00,CLR,,0.00,WeatherDisplay:10.37,2013-05-22 08:20:00,
2013-05-22 04:21:00,64.4,62.3,29.00,North,0,0.0,0.0,93,0.00,CLR,,0.00,WeatherDisplay:10.37,2013-05-22 08:21:00,
2013-05-22 04:24:00,64.4,62.3,29.00,North,0,0.0,0.0,93,0.00,CLR,,0.00,WeatherDisplay:10.37,2013-05-22 08:24:00,
2013-05-22 04:25:00,64.4,62.3,29.00,North,0,0.0,0.0,93,0.00,CLR,,0.00,WeatherDisplay:10.37,2013-05-22 08:25:00,
2013-05-22 04:26:00,64.4,62.3,29.00,North,0,0.0,0.0,93,0.00,CLR,,0.00,WeatherDisplay:10.37,2013-05-22 08:26:00,
2013-05-22 04:29:00,64.4,62.3,29.00,North,0,0.0,0.0,93,0.00,CLR,,0.00,WeatherDisplay:10.37,2013-05-22 08:29:00,
2013-05-22 04:31:00,64.4,62.3,29.00,North,0,0.0,0.0,93,0.00,CLR,,0.00,WeatherDisplay:10.37,2013-05-22 08:31:00,
2013-05-22 04:34:00,64.4,62.3,29.00,NNE,22,0.0,0.0,93,0.00,CLR,,0.00,WeatherDisplay:10.37,2013-05-22 08:34:00,
2013-05-22 04:36:00,64.4,62.3,29.00,NNE,22,0.0,0.0,93,0.00,CLR,,0.00,WeatherDisplay:10.37,2013-05-22 08:36:00,
2013-05-22 04:40:00,64.4,62.6,29.00,NNE,22,0.0,0.0,94,0.00,CLR,,0.00,WeatherDisplay:10.37,2013-05-22 08:40:00,
2013-05-22 04:41:00,64.4,62.6,29.00,NNE,22,0.0,0.0,94,0.00,CLR,,0.00,WeatherDisplay:10.37,2013-05-22 08:41:00,
2013-05-22 04:45:00,64.6,62.8,29.00,SW,225,0.0,0.0,94,0.00,CLR,,0.00,WeatherDisplay:10.37,2013-05-22 08:45:00,
2013-05-22 04:46:00,64.6,62.8,29.00,SW,225,0.0,0.0,94,0.00,CLR,,0.00,WeatherDisplay:10.37,2013-05-22 08:46:00,
2013-05-22 04:47:00,64.6,62.8,29.00,SW,225,0.0,0.0,94,0.00,CLR,,0.00,WeatherDisplay:10.37,2013-05-22 08:47:00,
2013-05-22 04:50:00,64.4,62.6,29.00,NW,315,0.0,0.0,94,0.00,CLR,,0.00,WeatherDisplay:10.37,2013-05-22 08:50:00,
2013-05-22 04:51:00,64.4,62.6,29.00,NW,315,0.0,0.0,94,0.00,CLR,,0.00,WeatherDisplay:10.37,2013-05-22 08:51:00,
2013-05-22 04:52:00,64.4,62.6,29.00,West,270,0.0,0.0,94,0.00,CLR,,0.00,WeatherDisplay:10.37,2013-05-22 08:52:00,
2013-05-22 04:56:00,64.4,62.3,29.00,West,270,0.0,0.0,93,0.00,CLR,,0.00,WeatherDisplay:10.37,2013-05-22 08:56:00,
2013-05-22 04:57:00,64.4,62.3,29.00,West,270,0.0,0.0,93,0.00,CLR,,0.00,WeatherDisplay:10.37,2013-05-22 08:57:00,
2013-05-22 05:01:00,64.2,62.5,29.00,West,270,0.0,0.0,94,0.00,CLR,,0.00,WeatherDisplay:10.37,2013-05-22 09:01:00,
2013-05-22 05:02:00,64.2,62.5,29.00,West,270,0.0,0.0,94,0.00,CLR,,0.00,WeatherDisplay:10.37,2013-05-22 09:02:00,
2013-05-22 05:03:00,64.2,62.5,29.00,West,270,0.0,0.0,94,0.00,CLR,,0.00,WeatherDisplay:10.37,2013-05-22 09:03:00,
2013-05-22 05:06:00,64.2,62.5,29.00,West,270,0.0,0.0,94,0.00,CLR,,0.00,WeatherDisplay:10.37,2013-05-22 09:06:00,
2013-05-22 05:07:00,64.2,62.5,29.00,West,270,0.0,0.0,94,0.00,CLR,,0.00,WeatherDisplay:10.37,2013-05-22 09:07:00,
2013-05-22 05:08:00,64.0,62.3,29.00,West,270,0.0,0.0,94,0.00,CLR,,0.00,WeatherDisplay:10.37,2013-05-22 09:08:00,
2013-05-22 05:12:00,64.2,62.5,29.00,SSW,202,0.0,0.0,94,0.00,CLR,,0.00,WeatherDisplay:10.37,2013-05-22 09:12:00,
2013-05-22 05:13:00,64.2,62.5,29.00,SSW,202,0.0,0.0,94,0.00,CLR,,0.00,WeatherDisplay:10.37,2013-05-22 09:13:00,
2013-05-22 05:17:00,64.2,62.5,29.00,NNE,22,0.0,0.0,94,0.00,CLR,,0.00,WeatherDisplay:10.37,2013-05-22 09:17:00,
2013-05-22 05:18:00,64.2,62.5,29.00,NNE,22,0.0,0.0,94,0.00,CLR,,0.00,WeatherDisplay:10.37,2013-05-22 09:18:00,
2013-05-22 05:22:00,64.4,62.6,29.00,NE,45,0.0,0.0,94,0.00,CLR,,0.00,WeatherDisplay:10.37,2013-05-22 09:22:00,
2013-05-22 05:23:00,64.4,62.6,29.00,West,270,0.0,0.0,94,0.00,CLR,,0.00,WeatherDisplay:10.37,2013-05-22 09:23:00,
2013-05-22 05:27:00,64.8,63.0,29.00,West,270,0.0,0.0,94,0.00,CLR,,0.00,WeatherDisplay:10.37,2013-05-22 09:27:00,
2013-05-22 05:28:00,64.8,63.0,29.00,West,270,0.0,0.0,94,0.00,CLR,,0.00,WeatherDisplay:10.37,2013-05-22 09:28:00,
2013-05-22 05:33:00,64.9,62.9,29.00,North,0,1.2,0.0,93,0.00,CLR,,0.00,WeatherDisplay:10.37,2013-05-22 09:33:00,
2013-05-22 05:34:00,64.9,62.9,29.00,North,0,0.0,0.0,93,0.00,CLR,,0.00,WeatherDisplay:10.37,2013-05-22 09:34:00,
2013-05-22 05:38:00,65.1,63.0,29.00,North,0,0.0,0.0,93,0.00,CLR,,0.00,WeatherDisplay:10.37,2013-05-22 09:38:00,
2013-05-22 05:39:00,65.1,63.0,29.00,North,0,0.0,0.0,93,0.00,CLR,,0.00,WeatherDisplay:10.37,2013-05-22 09:39:00,
2013-05-22 05:43:00,65.1,63.0,29.00,NW,315,0.0,0.0,93,0.00,CLR,,0.00,WeatherDisplay:10.37,2013-05-22 09:43:00,
2013-05-22 05:44:00,65.1,63.0,29.00,NW,315,0.0,0.0,93,0.00,CLR,,0.00,WeatherDisplay:10.37,2013-05-22 09:44:00,
2013-05-22 05:48:00,65.3,62.9,29.00,NW,315,0.0,0.0,92,0.00,CLR,,0.00,WeatherDisplay:10.37,2013-05-22 09:48:00,
2013-05-22 05:49:00,65.3,62.9,29.00,NW,315,0.0,0.0,92,0.00,CLR,,0.00,WeatherDisplay:10.37,2013-05-22 09:49:00,
2013-05-22 05:53:00,65.5,63.4,29.00,NW,315,0.0,0.0,93,0.00,CLR,,0.00,WeatherDisplay:10.37,2013-05-22 09:53:00,
2013-05-22 05:54:00,65.5,63.4,29.00,North,0,0.0,0.0,93,0.00,CLR,,0.00,WeatherDisplay:10.37,2013-05-22 09:54:00,
2013-05-22 05:59:00,65.5,63.4,29.00,NW,315,0.0,0.0,93,0.00,CLR,,0.00,WeatherDisplay:10.37,2013-05-22 09:59:00,
2013-05-22 06:04:00,65.5,63.1,29.00,West,270,0.0,0.0,92,0.00,CLR,,0.00,WeatherDisplay:10.37,2013-05-22 10:04:00,
2013-05-22 06:05:00,65.5,63.1,29.00,West,270,0.0,0.0,92,0.00,CLR,,0.00,WeatherDisplay:10.37,2013-05-22 10:05:00,
2013-05-22 06:09:00,65.3,62.9,29.00,NW,315,0.0,0.0,92,0.00,CLR,,0.00,WeatherDisplay:10.37,2013-05-22 10:09:00,
2013-05-22 06:10:00,65.3,62.9,29.00,NW,315,0.0,0.0,92,0.00,CLR,,0.00,WeatherDisplay:10.37,2013-05-22 10:10:00,
2013-05-22 06:14:00,65.1,63.0,29.00,NW,315,0.0,0.0,93,0.00,CLR,,0.00,WeatherDisplay:10.37,2013-05-22 10:14:00,
2013-05-22 06:15:00,65.1,63.0,29.00,NW,315,0.0,0.0,93,0.00,CLR,,0.00,WeatherDisplay:10.37,2013-05-22 10:15:00,
2013-05-22 06:19:00,65.1,63.0,29.00,NW,315,0.0,0.0,93,0.00,CLR,,0.00,WeatherDisplay:10.37,2013-05-22 10:19:00,
2013-05-22 06:20:00,65.1,63.0,29.00,NW,315,0.0,0.0,93,0.00,CLR,,0.00,WeatherDisplay:10.37,2013-05-22 10:20:00,
2013-05-22 06:21:00,65.1,63.0,29.00,NW,315,0.0,0.0,93,0.00,CLR,,0.00,WeatherDisplay:10.37,2013-05-22 10:21:00,
2013-05-22 06:24:00,65.1,63.0,29.00,West,270,0.0,0.0,93,0.00,CLR,,0.00,WeatherDisplay:10.37,2013-05-22 10:24:00,
2013-05-22 06:25:00,65.1,63.0,29.00,West,270,0.0,0.0,93,0.00,CLR,,0.00,WeatherDisplay:10.37,2013-05-22 10:25:00,
2013-05-22 06:26:00,65.1,63.0,29.00,West,270,0.0,0.0,93,0.00,CLR,,0.00,WeatherDisplay:10.37,2013-05-22 10:26:00,
2013-05-22 06:30:00,65.3,63.2,29.00,West,270,1.4,1.4,93,0.00,CLR,,0.00,WeatherDisplay:10.37,2013-05-22 10:30:00,
2013-05-22 06:31:00,65.3,63.2,29.00,WNW,292,1.2,0.0,93,0.00,CLR,,0.00,WeatherDisplay:10.37,2013-05-22 10:31:00,
2013-05-22 06:35:00,65.1,63.0,29.00,WNW,292,0.0,0.0,93,0.00,CLR,,0.00,WeatherDisplay:10.37,2013-05-22 10:35:00,
2013-05-22 06:36:00,65.1,63.0,29.00,WNW,292,0.0,0.0,93,0.00,CLR,,0.00,WeatherDisplay:10.37,2013-05-22 10:36:00,
2013-05-22 06:40:00,65.1,63.0,29.00,West,270,0.0,0.0,93,0.00,CLR,,0.00,WeatherDisplay:10.37,2013-05-22 10:40:00,
2013-05-22 06:41:00,65.1,63.0,29.00,West,270,0.0,0.0,93,0.00,CLR,,0.00,WeatherDisplay:10.37,2013-05-22 10:41:00,
2013-05-22 06:42:00,65.1,63.0,29.00,West,270,0.0,0.0,93,0.00,CLR,,0.00,WeatherDisplay:10.37,2013-05-22 10:42:00,
2013-05-22 06:45:00,65.1,63.3,29.00,West,270,0.0,0.0,94,0.00,CLR,,0.00,WeatherDisplay:10.37,2013-05-22 10:45:00,
2013-05-22 06:46:00,65.1,63.3,29.00,West,270,0.0,0.0,94,0.00,CLR,,0.00,WeatherDisplay:10.37,2013-05-22 10:46:00,
2013-05-22 06:47:00,65.1,63.3,29.00,West,270,0.0,0.0,94,0.00,CLR,,0.00,WeatherDisplay:10.37,2013-05-22 10:47:00,
2013-05-22 06:50:00,65.3,63.2,29.00,West,270,0.0,0.0,93,0.00,CLR,,0.00,WeatherDisplay:10.37,2013-05-22 10:50:00,
2013-05-22 06:51:00,65.3,63.5,29.00,West,270,0.0,0.0,94,0.00,CLR,,0.00,WeatherDisplay:10.37,2013-05-22 10:51:00,
2013-05-22 06:52:00,65.3,63.5,29.00,West,270,0.0,0.0,94,0.00,CLR,,0.00,WeatherDisplay:10.37,2013-05-22 10:52:00,
2013-05-22 06:56:00,65.5,63.7,29.00,East,90,0.0,0.0,94,0.00,CLR,,0.00,WeatherDisplay:10.37,2013-05-22 10:56:00,
2013-05-22 06:57:00,65.5,63.4,29.00,East,90,0.0,0.0,93,0.00,CLR,,0.00,WeatherDisplay:10.37,2013-05-22 10:57:00,
2013-05-22 07:01:00,65.5,63.4,29.00,East,90,0.0,0.0,93,0.00,CLR,,0.00,WeatherDisplay:10.37,2013-05-22 11:01:00,
2013-05-22 07:02:00,65.5,63.4,29.00,East,90,0.0,0.0,93,0.00,CLR,,0.00,WeatherDisplay:10.37,2013-05-22 11:02:00,
2013-05-22 07:06:00,65.8,63.8,29.03,NW,315,0.0,0.0,93,0.00,CLR,,0.00,WeatherDisplay:10.37,2013-05-22 11:06:00,
2013-05-22 07:07:00,65.8,63.8,29.03,NW,315,0.0,0.0,93,0.00,CLR,,0.00,WeatherDisplay:10.37,2013-05-22 11:07:00,
2013-05-22 07:08:00,65.8,63.8,29.03,NW,315,0.0,0.0,93,0.00,CLR,,0.00,WeatherDisplay:10.37,2013-05-22 11:08:00,
2013-05-22 07:11:00,65.8,63.8,29.03,West,270,0.0,0.0,93,0.00,CLR,,0.00,WeatherDisplay:10.37,2013-05-22 11:11:00,
2013-05-22 07:12:00,65.8,63.8,29.03,NNW,338,0.0,0.0,93,0.00,CLR,,0.00,WeatherDisplay:10.37,2013-05-22 11:12:00,
2013-05-22 07:13:00,66.2,63.8,29.03,NNW,338,0.0,0.0,92,0.00,CLR,,0.00,WeatherDisplay:10.37,2013-05-22 11:13:00,
2013-05-22 07:16:00,66.6,64.2,29.03,NE,45,1.2,1.2,92,0.00,CLR,,0.00,WeatherDisplay:10.37,2013-05-22 11:16:00,
2013-05-22 07:17:00,66.6,64.2,29.03,ESE,112,1.2,1.2,92,0.00,CLR,,0.00,WeatherDisplay:10.37,2013-05-22 11:17:00,
2013-05-22 07:18:00,66.7,64.0,29.00,NE,45,1.2,0.0,91,0.00,CLR,,0.00,WeatherDisplay:10.37,2013-05-22 11:18:00,
2013-05-22 07:21:00,66.6,64.2,29.00,ENE,68,0.0,0.0,92,0.00,CLR,,0.00,WeatherDisplay:10.37,2013-05-22 11:21:00,
2013-05-22 07:22:00,66.6,64.2,29.00,NE,45,0.0,0.0,92,0.00,CLR,,0.00,WeatherDisplay:10.37,2013-05-22 11:22:00,
2013-05-22 07:23:00,66.6,64.2,29.00,NE,45,0.0,0.0,92,0.00,CLR,,0.00,WeatherDisplay:10.37,2013-05-22 11:23:00,
2013-05-22 07:27:00,66.4,64.0,29.00,NE,45,0.0,0.0,92,0.00,CLR,,0.00,WeatherDisplay:10.37,2013-05-22 11:27:00,
2013-05-22 07:28:00,66.4,64.0,29.00,NE,45,0.0,0.0,92,0.00,CLR,,0.00,WeatherDisplay:10.37,2013-05-22 11:28:00,
2013-05-22 07:29:00,66.6,64.2,29.00,NE,45,0.0,0.0,92,0.00,CLR,,0.00,WeatherDisplay:10.37,2013-05-22 11:29:00,
2013-05-22 07:32:00,66.6,64.2,29.00,NW,315,0.0,0.0,92,0.00,CLR,,0.00,WeatherDisplay:10.37,2013-05-22 11:32:00,
2013-05-22 07:33:00,66.6,64.2,29.03,NW,315,1.2,1.2,92,0.00,CLR,,0.00,WeatherDisplay:10.37,2013-05-22 11:33:00,
2013-05-22 07:34:00,66.7,64.0,29.03,NE,45,1.4,1.4,91,0.00,CLR,,0.00,WeatherDisplay:10.37,2013-05-22 11:34:00,
2013-05-22 07:37:00,66.7,64.0,29.03,NE,45,2.3,2.3,91,0.00,CLR,,0.00,WeatherDisplay:10.37,2013-05-22 11:37:00,
2013-05-22 07:38:00,66.7,64.0,29.03,NE,45,2.3,2.3,91,0.00,CLR,,0.00,WeatherDisplay:10.37,2013-05-22 11:38:00,
2013-05-22 07:39:00,66.9,64.2,29.03,NNW,338,2.4,2.4,91,0.00,CLR,,0.00,WeatherDisplay:10.37,2013-05-22 11:39:00,
2013-05-22 07:43:00,67.1,64.4,29.03,NE,45,2.3,2.3,91,0.00,CLR,,0.00,WeatherDisplay:10.37,2013-05-22 11:43:00,
2013-05-22 07:44:00,67.1,64.4,29.03,ENE,68,1.2,0.0,91,0.00,CLR,,0.00,WeatherDisplay:10.37,2013-05-22 11:44:00,
2013-05-22 07:48:00,67.1,64.1,29.03,NW,315,1.2,0.0,90,0.00,CLR,,0.00,WeatherDisplay:10.37,2013-05-22 11:48:00,
2013-05-22 07:49:00,67.1,64.1,29.03,NW,315,1.2,0.0,90,0.00,CLR,,0.00,WeatherDisplay:10.37,2013-05-22 11:49:00,
2013-05-22 07:50:00,67.1,64.1,29.03,NW,315,0.0,0.0,90,0.00,CLR,,0.00,WeatherDisplay:10.37,2013-05-22 11:50:00,
2013-05-22 07:53:00,67.3,64.2,29.03,NE,45,2.0,2.0,90,0.00,CLR,,0.00,WeatherDisplay:10.37,2013-05-22 11:53:00,
2013-05-22 07:54:00,67.3,64.2,29.03,NE,45,2.3,2.3,90,0.00,CLR,,0.00,WeatherDisplay:10.37,2013-05-22 11:54:00,
2013-05-22 07:55:00,67.3,64.2,29.03,NE,45,2.3,2.3,90,0.00,CLR,,0.00,WeatherDisplay:10.37,2013-05-22 11:55:00,
2013-05-22 07:58:00,67.3,64.2,29.03,North,0,1.2,0.0,90,0.00,CLR,,0.00,WeatherDisplay:10.37,2013-05-22 11:58:00,
2013-05-22 07:59:00,67.3,64.2,29.03,North,0,1.2,0.0,90,0.00,CLR,,0.00,WeatherDisplay:10.37,2013-05-22 11:59:00,
2013-05-22 08:00:00,67.3,64.2,29.03,NE,45,2.0,2.0,90,0.00,CLR,,0.00,WeatherDisplay:10.37,2013-05-22 12:00:00,
2013-05-22 08:03:00,67.3,64.2,29.03,NE,45,1.2,1.2,90,0.00,CLR,,0.00,WeatherDisplay:10.37,2013-05-22 12:03:00,
2013-05-22 08:04:00,67.3,64.2,29.03,NNW,338,1.2,0.0,90,0.00,CLR,,0.00,WeatherDisplay:10.37,2013-05-22 12:04:00,
2013-05-22 08:05:00,67.3,64.2,29.03,NE,45,0.0,0.0,90,0.00,CLR,,0.00,WeatherDisplay:10.37,2013-05-22 12:05:00,
2013-05-22 08:08:00,67.1,64.4,29.03,NW,315,1.2,1.2,91,0.00,CLR,,0.00,WeatherDisplay:10.37,2013-05-22 12:08:00,
2013-05-22 08:09:00,67.1,64.4,29.03,NW,315,1.2,0.0,91,0.00,CLR,,0.00,WeatherDisplay:10.37,2013-05-22 12:09:00,
2013-05-22 08:10:00,67.1,64.4,29.03,NW,315,1.2,0.0,91,0.00,CLR,,0.00,WeatherDisplay:10.37,2013-05-22 12:10:00,
2013-05-22 08:13:00,67.1,64.4,29.03,North,0,2.3,2.3,91,0.00,CLR,,0.00,WeatherDisplay:10.37,2013-05-22 12:13:00,
2013-05-22 08:14:00,67.1,64.4,29.03,NNW,338,2.3,2.3,91,0.04,RA,,0.04,WeatherDisplay:10.37,2013-05-22 12:14:00,
2013-05-22 08:15:00,67.1,64.4,29.03,NW,315,4.0,4.0,91,0.04,RA,,0.04,WeatherDisplay:10.37,2013-05-22 12:15:00,
2013-05-22 08:16:00,67.1,64.4,29.03,NW,315,4.6,4.6,91,0.04,RA,,0.04,WeatherDisplay:10.37,2013-05-22 12:16:00,
2013-05-22 08:19:00,67.3,64.6,29.03,NE,45,1.4,1.4,91,0.04,RA,,0.04,WeatherDisplay:10.37,2013-05-22 12:19:00,
2013-05-22 08:20:00,67.3,64.2,29.03,NW,315,1.4,1.4,90,0.04,RA,,0.04,WeatherDisplay:10.37,2013-05-22 12:20:00,
2013-05-22 08:21:00,67.3,64.2,29.03,North,0,1.2,1.2,90,0.04,RA,,0.04,WeatherDisplay:10.37,2013-05-22 12:21:00,
2013-05-22 08:24:00,67.3,64.6,29.03,North,0,3.5,3.5,91,0.04,RA,,0.04,WeatherDisplay:10.37,2013-05-22 12:24:00,
2013-05-22 08:25:00,67.3,64.6,29.03,North,0,3.5,0.0,91,0.04,,,0.04,WeatherDisplay:10.37,2013-05-22 12:25:00,
2013-05-22 08:26:00,67.3,64.6,29.03,NNE,22,3.6,3.6,91,0.04,,,0.04,WeatherDisplay:10.37,2013-05-22 12:26:00,
2013-05-22 08:29:00,67.3,64.6,29.03,West,270,4.6,4.6,91,0.04,CLR,,0.04,WeatherDisplay:10.37,2013-05-22 12:29:00,
2013-05-22 08:30:00,67.3,64.6,29.03,NNE,22,4.6,4.6,91,0.04,CLR,,0.04,WeatherDisplay:10.37,2013-05-22 12:30:00,
2013-05-22 08:31:00,67.3,64.6,29.03,NW,315,2.3,2.3,91,0.04,CLR,,0.04,WeatherDisplay:10.37,2013-05-22 12:31:00,
2013-05-22 08:32:00,67.3,64.6,29.03,NNE,22,2.2,2.2,91,0.04,CLR,,0.04,WeatherDisplay:10.37,2013-05-22 12:32:00,
2013-05-22 08:35:00,67.5,64.4,29.03,NNE,22,2.4,2.4,90,0.04,CLR,,0.04,WeatherDisplay:10.37,2013-05-22 12:35:00,
2013-05-22 08:36:00,67.5,64.4,29.03,NW,315,2.3,2.3,90,0.04,CLR,,0.04,WeatherDisplay:10.37,2013-05-22 12:36:00,
2013-05-22 08:37:00,67.5,64.4,29.03,NW,315,2.3,2.3,90,0.04,CLR,,0.04,WeatherDisplay:10.37,2013-05-22 12:37:00,
2013-05-22 08:40:00,67.6,64.9,29.03,NE,45,2.9,2.9,91,0.04,CLR,,0.04,WeatherDisplay:10.37,2013-05-22 12:40:00,
2013-05-22 08:42:00,67.6,64.6,29.03,NW,315,2.4,2.4,90,0.04,CLR,,0.04,WeatherDisplay:10.37,2013-05-22 12:42:00,
2013-05-22 08:45:00,67.6,64.9,29.03,NNE,22,1.6,1.6,91,0.04,CLR,,0.04,WeatherDisplay:10.37,2013-05-22 12:45:00,
2013-05-22 08:47:00,67.6,64.9,29.03,North,0,2.0,2.0,91,0.04,CLR,,0.04,WeatherDisplay:10.37,2013-05-22 12:47:00,
2013-05-22 08:50:00,68.0,65.0,29.03,North,0,2.3,0.0,90,0.04,CLR,,0.04,WeatherDisplay:10.37,2013-05-22 12:50:00,
2013-05-22 08:51:00,68.0,65.0,29.03,NE,45,2.3,2.3,90,0.04,CLR,,0.04,WeatherDisplay:10.37,2013-05-22 12:51:00,
2013-05-22 08:52:00,68.2,65.1,29.03,North,0,2.9,2.9,90,0.04,CLR,,0.04,WeatherDisplay:10.37,2013-05-22 12:52:00,
2013-05-22 08:55:00,68.4,65.3,29.03,North,0,2.4,2.4,90,0.04,CLR,,0.04,WeatherDisplay:10.37,2013-05-22 12:55:00,
2013-05-22 08:56:00,68.4,65.3,29.03,North,0,2.6,2.6,90,0.04,CLR,,0.04,WeatherDisplay:10.37,2013-05-22 12:56:00,
2013-05-22 08:57:00,68.4,65.0,29.03,NW,315,2.3,0.0,89,0.04,CLR,,0.04,WeatherDisplay:10.37,2013-05-22 12:57:00,
2013-05-22 09:00:00,68.5,65.2,29.03,North,0,2.4,2.4,89,0.04,CLR,,0.04,WeatherDisplay:10.37,2013-05-22 13:00:00,
2013-05-22 09:01:00,68.5,65.2,29.03,NE,45,3.5,3.5,89,0.04,CLR,,0.04,WeatherDisplay:10.37,2013-05-22 13:01:00,
2013-05-22 09:02:00,68.5,65.2,29.03,NNE,22,3.5,3.5,89,0.04,CLR,,0.04,WeatherDisplay:10.37,2013-05-22 13:02:00,
2013-05-22 09:03:00,68.5,65.2,29.03,NNE,22,3.5,3.5,89,0.04,CLR,,0.04,WeatherDisplay:10.37,2013-05-22 13:03:00,
2013-05-22 09:05:00,68.5,65.2,29.03,ENE,68,2.3,2.3,89,0.04,CLR,,0.04,WeatherDisplay:10.37,2013-05-22 13:05:00,
2013-05-22 09:06:00,68.5,65.2,29.03,WNW,292,2.3,2.3,89,0.04,CLR,,0.04,WeatherDisplay:10.37,2013-05-22 13:06:00,
2013-05-22 09:07:00,68.4,65.0,29.03,North,0,3.8,3.8,89,0.04,CLR,,0.04,WeatherDisplay:10.37,2013-05-22 13:07:00,
2013-05-22 09:08:00,68.4,65.0,29.03,North,0,3.8,3.8,89,0.04,CLR,,0.04,WeatherDisplay:10.37,2013-05-22 13:08:00,
2013-05-22 09:10:00,68.4,65.0,29.03,NW,315,1.6,1.6,89,0.04,CLR,,0.04,WeatherDisplay:10.37,2013-05-22 13:10:00,
2013-05-22 09:11:00,68.4,65.0,29.03,NW,315,1.6,1.6,89,0.04,CLR,,0.04,WeatherDisplay:10.37,2013-05-22 13:11:00,
2013-05-22 09:12:00,68.4,65.0,29.03,North,0,1.6,1.6,89,0.04,CLR,,0.04,WeatherDisplay:10.37,2013-05-22 13:12:00,
2013-05-22 09:13:00,68.5,64.8,29.03,NE,45,1.4,1.4,88,0.04,CLR,,0.04,WeatherDisplay:10.37,2013-05-22 13:13:00,
2013-05-22 09:15:00,68.5,64.8,29.03,NNE,22,4.6,4.6,88,0.00,CLR,,0.04,WeatherDisplay:10.37,2013-05-22 13:15:00,
2013-05-22 09:16:00,68.5,64.8,29.03,NNE,22,4.6,4.6,88,0.00,CLR,,0.04,WeatherDisplay:10.37,2013-05-22 13:16:00,
2013-05-22 09:17:00,68.5,64.8,29.03,NE,45,4.6,4.6,88,0.00,CLR,,0.04,WeatherDisplay:10.37,2013-05-22 13:17:00,
2013-05-22 09:18:00,68.5,64.8,29.03,NE,45,1.6,1.6,88,0.00,CLR,,0.04,WeatherDisplay:10.37,2013-05-22 13:18:00,
2013-05-22 09:21:00,68.7,65.0,29.03,NNW,338,3.8,3.8,88,0.00,CLR,,0.04,WeatherDisplay:10.37,2013-05-22 13:21:00,
2013-05-22 09:22:00,68.7,65.0,29.03,NNW,338,4.3,4.3,88,0.00,CLR,,0.04,WeatherDisplay:10.37,2013-05-22 13:22:00,
2013-05-22 09:23:00,68.9,65.2,29.03,NNE,22,4.6,4.6,88,0.00,CLR,,0.04,WeatherDisplay:10.37,2013-05-22 13:23:00,
2013-05-22 09:26:00,69.1,65.0,29.03,NE,45,4.6,4.6,87,0.00,CLR,,0.04,WeatherDisplay:10.37,2013-05-22 13:26:00,
2013-05-22 09:27:00,69.1,65.0,29.03,NE,45,4.6,4.6,87,0.00,CLR,,0.04,WeatherDisplay:10.37,2013-05-22 13:27:00,
2013-05-22 09:28:00,69.3,65.2,29.03,NE,45,3.5,3.5,87,0.00,CLR,,0.04,WeatherDisplay:10.37,2013-05-22 13:28:00,
2013-05-22 09:29:00,69.3,65.2,29.03,NE,45,3.5,3.5,87,0.00,CLR,,0.04,WeatherDisplay:10.37,2013-05-22 13:29:00,
2013-05-22 09:31:00,69.3,65.2,29.03,NW,315,7.4,7.4,87,0.00,CLR,,0.04,WeatherDisplay:10.37,2013-05-22 13:31:00,
2013-05-22 09:32:00,69.4,65.1,29.03,NNW,338,6.9,6.9,86,0.00,CLR,,0.04,WeatherDisplay:10.37,2013-05-22 13:32:00,
2013-05-22 09:34:00,69.4,65.4,29.03,NE,45,5.8,5.8,87,0.00,CLR,,0.04,WeatherDisplay:10.37,2013-05-22 13:34:00,
2013-05-22 09:36:00,69.6,65.2,29.03,SW,225,3.5,3.5,86,0.00,CLR,,0.04,WeatherDisplay:10.37,2013-05-22 13:36:00,
2013-05-22 09:37:00,69.6,65.2,29.03,NW,315,2.3,2.3,86,0.00,CLR,,0.04,WeatherDisplay:10.37,2013-05-22 13:37:00,
2013-05-22 09:39:00,69.6,65.2,29.03,NNE,22,5.6,5.6,86,0.00,CLR,,0.04,WeatherDisplay:10.37,2013-05-22 13:39:00,
2013-05-22 09:41:00,69.8,65.4,29.03,West,270,2.3,2.3,86,0.00,CLR,,0.04,WeatherDisplay:10.37,2013-05-22 13:41:00,
2013-05-22 09:42:00,69.8,65.4,29.03,North,0,5.9,5.9,86,0.00,CLR,,0.04,WeatherDisplay:10.37,2013-05-22 13:42:00,
2013-05-22 09:43:00,70.0,65.6,29.03,North,0,5.9,5.9,86,0.00,CLR,,0.04,WeatherDisplay:10.37,2013-05-22 13:43:00,
2013-05-22 09:44:00,70.0,65.6,29.03,North,0,5.8,5.8,86,0.00,CLR,,0.04,WeatherDisplay:10.37,2013-05-22 13:44:00,
2013-05-22 09:46:00,70.2,65.4,29.03,NE,45,5.8,5.8,85,0.00,CLR,,0.04,WeatherDisplay:10.37,2013-05-22 13:46:00,
2013-05-22 09:47:00,70.2,65.4,29.03,NW,315,5.8,5.8,85,0.00,CLR,,0.04,WeatherDisplay:10.37,2013-05-22 13:47:00,
2013-05-22 09:48:00,70.2,65.4,29.00,NW,315,5.8,5.8,85,0.00,CLR,,0.04,WeatherDisplay:10.37,2013-05-22 13:48:00,
2013-05-22 09:49:00,70.5,65.8,29.00,NNW,338,5.8,5.8,85,0.00,CLR,,0.04,WeatherDisplay:10.37,2013-05-22 13:49:00,
2013-05-22 09:50:00,70.5,65.8,29.00,NNW,338,5.8,5.8,85,0.00,CLR,,0.04,WeatherDisplay:10.37,2013-05-22 13:50:00,
2013-05-22 09:51:00,70.5,65.8,29.00,North,0,3.6,3.6,85,0.00,CLR,,0.04,WeatherDisplay:10.37,2013-05-22 13:51:00,
2013-05-22 09:53:00,70.5,65.8,29.00,North,0,3.5,3.5,85,0.00,CLR,,0.04,WeatherDisplay:10.37,2013-05-22 13:53:00,
2013-05-22 09:55:00,70.7,66.0,29.00,NW,315,3.5,3.5,85,0.00,CLR,,0.04,WeatherDisplay:10.37,2013-05-22 13:55:00,
2013-05-22 09:58:00,70.9,65.8,29.00,NW,315,3.5,3.5,84,0.00,CLR,,0.04,WeatherDisplay:10.37,2013-05-22 13:58:00,
2013-05-22 10:00:00,71.1,66.0,29.00,NNW,338,6.9,6.9,84,0.00,CLR,,0.04,WeatherDisplay:10.37,2013-05-22 14:00:00,
2013-05-22 10:03:00,71.2,66.2,29.00,NW,315,3.5,3.5,84,0.00,CLR,,0.04,WeatherDisplay:10.37,2013-05-22 14:03:00,
2013-05-22 10:04:00,71.4,66.3,29.00,NE,45,3.5,3.5,84,0.00,CLR,,0.04,WeatherDisplay:10.37,2013-05-22 14:04:00,
2013-05-22 10:05:00,71.4,66.3,29.00,North,0,6.0,6.0,84,0.00,CLR,,0.04,WeatherDisplay:10.37,2013-05-22 14:05:00,
2013-05-22 10:08:00,71.6,65.8,29.00,North,0,3.6,3.6,82,0.00,CLR,,0.04,WeatherDisplay:10.37,2013-05-22 14:08:00,
2013-05-22 10:09:00,71.6,65.5,29.00,NW,315,3.5,3.5,81,0.00,CLR,,0.04,WeatherDisplay:10.37,2013-05-22 14:09:00,
2013-05-22 10:10:00,71.6,65.5,29.00,WNW,292,2.0,2.0,81,0.00,CLR,,0.04,WeatherDisplay:10.37,2013-05-22 14:10:00,
2013-05-22 10:11:00,71.8,66.0,29.00,WNW,292,2.0,2.0,82,0.00,CLR,,0.04,WeatherDisplay:10.37,2013-05-22 14:11:00,
2013-05-22 10:13:00,71.8,65.6,29.00,NE,45,4.6,4.6,81,0.00,CLR,,0.04,WeatherDisplay:10.37,2013-05-22 14:13:00,
2013-05-22 10:14:00,71.8,65.6,29.00,NNE,22,2.3,2.3,81,0.00,CLR,,0.04,WeatherDisplay:10.37,2013-05-22 14:14:00,
2013-05-22 10:16:00,71.8,65.6,29.00,ENE,68,2.3,0.0,81,0.00,CLR,,0.04,WeatherDisplay:10.37,2013-05-22 14:16:00,
2013-05-22 10:18:00,72.1,66.3,29.00,NW,315,2.3,2.3,82,0.00,CLR,,0.04,WeatherDisplay:10.37,2013-05-22 14:18:00,
2013-05-22 10:19:00,72.1,66.3,29.00,NE,45,3.6,3.6,82,0.00,CLR,,0.04,WeatherDisplay:10.37,2013-05-22 14:19:00,
2013-05-22 10:21:00,72.1,66.0,29.00,NNW,338,3.5,3.5,81,0.00,CLR,,0.04,WeatherDisplay:10.37,2013-05-22 14:21:00,
2013-05-22 10:23:00,72.1,66.0,29.00,NW,315,5.8,5.8,81,0.00,CLR,,0.04,WeatherDisplay:10.37,2013-05-22 14:23:00,
2013-05-22 10:24:00,72.1,66.0,29.00,North,0,5.8,5.8,81,0.00,CLR,,0.04,WeatherDisplay:10.37,2013-05-22 14:24:00,
2013-05-22 10:25:00,72.1,66.0,29.00,NE,45,3.5,3.5,81,0.00,CLR,,0.04,WeatherDisplay:10.37,2013-05-22 14:25:00,
2013-05-22 10:26:00,72.1,65.6,29.00,NW,315,4.3,4.3,80,0.00,CLR,,0.04,WeatherDisplay:10.37,2013-05-22 14:26:00,
2013-05-22 10:29:00,72.1,65.6,29.00,NNW,338,5.8,5.8,80,0.00,CLR,,0.04,WeatherDisplay:10.37,2013-05-22 14:29:00,
2013-05-22 10:30:00,72.3,65.8,29.00,WNW,292,3.5,3.5,80,0.00,CLR,,0.04,WeatherDisplay:10.37,2013-05-22 14:30:00,
2013-05-22 10:31:00,72.3,65.8,29.00,WNW,292,3.5,3.5,80,0.00,CLR,,0.04,WeatherDisplay:10.37,2013-05-22 14:31:00,
2013-05-22 10:32:00,72.3,65.8,29.00,NNW,338,3.3,3.3,80,0.00,CLR,,0.04,WeatherDisplay:10.37,2013-05-22 14:32:00,
2013-05-22 10:34:00,72.5,66.0,29.00,NE,45,5.8,5.8,80,0.00,CLR,,0.04,WeatherDisplay:10.37,2013-05-22 14:34:00,
2013-05-22 10:35:00,72.5,66.0,29.00,North,0,3.5,3.5,80,0.00,CLR,,0.04,WeatherDisplay:10.37,2013-05-22 14:35:00,
2013-05-22 10:36:00,72.7,66.2,29.00,NE,45,3.5,3.5,80,0.00,CLR,,0.04,WeatherDisplay:10.37,2013-05-22 14:36:00,
2013-05-22 10:37:00,72.7,66.2,29.00,NNE,22,3.5,3.5,80,0.00,CLR,,0.04,WeatherDisplay:10.37,2013-05-22 14:37:00,
2013-05-22 10:39:00,72.9,66.3,29.00,North,0,3.6,3.6,80,0.00,CLR,,0.04,WeatherDisplay:10.37,2013-05-22 14:39:00,
2013-05-22 10:40:00,72.9,66.3,29.00,North,0,3.6,3.6,80,0.00,CLR,,0.04,WeatherDisplay:10.37,2013-05-22 14:40:00,
2013-05-22 10:41:00,73.0,66.5,29.00,NW,315,3.6,3.6,80,0.00,CLR,,0.04,WeatherDisplay:10.37,2013-05-22 14:41:00,
2013-05-22 10:42:00,73.0,66.5,29.00,NW,315,3.6,3.6,80,0.00,CLR,,0.04,WeatherDisplay:10.37,2013-05-22 14:42:00,
2013-05-22 10:45:00,73.2,66.7,29.00,North,0,6.9,6.9,80,0.00,CLR,,0.04,WeatherDisplay:10.37,2013-05-22 14:45:00,
2013-05-22 10:46:00,73.2,66.7,29.00,NW,315,3.8,3.8,80,0.00,CLR,,0.04,WeatherDisplay:10.37,2013-05-22 14:46:00,
2013-05-22 10:47:00,73.4,66.9,29.00,North,0,3.5,3.5,80,0.00,CLR,,0.04,WeatherDisplay:10.37,2013-05-22 14:47:00,
2013-05-22 10:50:00,73.4,66.5,29.00,NE,45,3.6,3.6,79,0.00,CLR,,0.04,WeatherDisplay:10.37,2013-05-22 14:50:00,
2013-05-22 10:51:00,73.4,66.5,29.00,ENE,68,3.5,3.5,79,0.00,CLR,,0.04,WeatherDisplay:10.37,2013-05-22 14:51:00,
2013-05-22 10:52:00,73.4,66.5,29.00,North,0,3.8,3.8,79,0.00,CLR,,0.04,WeatherDisplay:10.37,2013-05-22 14:52:00,
2013-05-22 10:55:00,73.2,66.3,29.00,NW,315,4.9,4.9,79,0.00,CLR,,0.04,WeatherDisplay:10.37,2013-05-22 14:55:00,
2013-05-22 10:56:00,73.2,66.3,29.00,NE,45,4.9,4.9,79,0.00,CLR,,0.04,WeatherDisplay:10.37,2013-05-22 14:56:00,
2013-05-22 10:57:00,73.0,65.8,29.00,NW,315,4.6,4.6,78,0.00,CLR,,0.04,WeatherDisplay:10.37,2013-05-22 14:57:00,
2013-05-22 11:00:00,72.9,66.0,29.00,North,0,7.4,7.4,79,0.00,CLR,,0.04,WeatherDisplay:10.37,2013-05-22 15:00:00,
2013-05-22 11:01:00,72.9,66.0,29.00,ENE,68,6.9,6.9,79,0.00,CLR,,0.04,WeatherDisplay:10.37,2013-05-22 15:01:00,
2013-05-22 11:02:00,72.7,65.4,29.00,NE,45,5.8,5.8,78,0.00,CLR,,0.04,WeatherDisplay:10.37,2013-05-22 15:02:00,
2013-05-22 11:03:00,72.7,65.4,29.00,NE,45,5.8,5.8,78,0.00,CLR,,0.04,WeatherDisplay:10.37,2013-05-22 15:03:00,
2013-05-22 11:05:00,72.5,65.6,29.00,North,0,3.5,3.5,79,0.00,CLR,,0.04,WeatherDisplay:10.37,2013-05-22 15:05:00,
2013-05-22 11:06:00,72.5,65.6,29.00,North,0,3.5,3.5,79,0.00,CLR,,0.04,WeatherDisplay:10.37,2013-05-22 15:06:00,
2013-05-22 11:07:00,72.5,65.6,29.00,West,270,3.5,3.5,79,0.00,CLR,,0.04,WeatherDisplay:10.37,2013-05-22 15:07:00,
2013-05-22 11:08:00,72.5,65.6,29.00,North,0,3.5,3.5,79,0.00,CLR,,0.04,WeatherDisplay:10.37,2013-05-22 15:08:00,
2013-05-22 11:10:00,72.5,65.6,29.00,NNE,22,4.9,4.9,79,0.00,CLR,,0.04,WeatherDisplay:10.37,2013-05-22 15:10:00,
2013-05-22 11:11:00,72.5,65.6,29.00,NW,315,5.4,5.4,79,0.00,CLR,,0.04,WeatherDisplay:10.37,2013-05-22 15:11:00,
2013-05-22 11:13:00,72.3,65.4,29.00,NNE,22,5.8,5.8,79,0.00,CLR,,0.04,WeatherDisplay:10.37,2013-05-22 15:13:00,
2013-05-22 11:15:00,72.5,65.6,29.00,North,0,2.3,2.3,79,0.00,CLR,,0.04,WeatherDisplay:10.37,2013-05-22 15:15:00,
2013-05-22 11:16:00,72.5,65.6,29.00,North,0,2.3,2.3,79,0.00,CLR,,0.04,WeatherDisplay:10.37,2013-05-22 15:16:00,
2013-05-22 11:18:00,72.5,65.2,29.00,NNE,22,7.4,7.4,78,0.00,CLR,,0.04,WeatherDisplay:10.37,2013-05-22 15:18:00,
2013-05-22 11:19:00,72.5,65.2,29.00,NNE,22,7.4,7.4,78,0.00,CLR,,0.04,WeatherDisplay:10.37,2013-05-22 15:19:00,
2013-05-22 11:21:00,72.5,65.2,29.00,NNW,338,5.8,5.8,78,0.00,CLR,,0.04,WeatherDisplay:10.37,2013-05-22 15:21:00,
2013-05-22 11:23:00,72.7,65.4,29.00,North,0,4.5,4.5,78,0.00,CLR,,0.04,WeatherDisplay:10.37,2013-05-22 15:23:00,
2013-05-22 11:24:00,72.7,65.4,29.00,NE,45,4.6,4.6,78,0.00,CLR,,0.04,WeatherDisplay:10.37,2013-05-22 15:24:00,
2013-05-22 11:26:00,72.9,65.6,29.00,NW,315,2.4,2.4,78,0.00,CLR,,0.04,WeatherDisplay:10.37,2013-05-22 15:26:00,
2013-05-22 11:28:00,73.0,65.8,29.00,North,0,2.4,2.4,78,0.00,CLR,,0.04,WeatherDisplay:10.37,2013-05-22 15:28:00,
2013-05-22 11:29:00,73.0,65.8,29.00,NNW,338,3.8,3.8,78,0.00,CLR,,0.04,WeatherDisplay:10.37,2013-05-22 15:29:00,
2013-05-22 11:31:00,73.4,65.7,29.00,NW,315,4.0,4.0,77,0.00,CLR,,0.04,WeatherDisplay:10.37,2013-05-22 15:31:00,
2013-05-22 11:32:00,73.4,65.7,29.00,NW,315,4.0,4.0,77,0.00,CLR,,0.04,WeatherDisplay:10.37,2013-05-22 15:32:00,
2013-05-22 11:33:00,73.8,66.1,29.00,SE,135,4.6,4.6,77,0.00,CLR,,0.04,WeatherDisplay:10.37,2013-05-22 15:33:00,
2013-05-22 11:34:00,73.8,66.1,29.00,NNE,22,2.4,2.4,77,0.00,CLR,,0.04,WeatherDisplay:10.37,2013-05-22 15:34:00,
2013-05-22 11:36:00,74.1,66.1,29.00,North,0,3.1,3.1,76,0.00,CLR,,0.04,WeatherDisplay:10.37,2013-05-22 15:36:00,
2013-05-22 11:37:00,74.1,66.1,29.00,North,0,3.1,3.1,76,0.00,CLR,,0.04,WeatherDisplay:10.37,2013-05-22 15:37:00,
2013-05-22 11:38:00,74.5,66.4,29.00,North,0,5.8,5.8,76,0.00,CLR,,0.04,WeatherDisplay:10.37,2013-05-22 15:38:00,
2013-05-22 11:39:00,74.5,66.4,29.00,North,0,7.1,7.1,76,0.00,CLR,,0.04,WeatherDisplay:10.37,2013-05-22 15:39:00,
2013-05-22 11:42:00,75.0,66.9,29.00,NW,315,2.3,2.3,76,0.00,CLR,,0.04,WeatherDisplay:10.37,2013-05-22 15:42:00,
2013-05-22 11:43:00,74.8,66.0,29.00,West,270,4.0,4.0,74,0.00,CLR,,0.04,WeatherDisplay:10.37,2013-05-22 15:43:00,
2013-05-22 11:44:00,74.8,66.0,29.00,NW,315,4.6,4.6,74,0.00,CLR,,0.04,WeatherDisplay:10.37,2013-05-22 15:44:00,
2013-05-22 11:47:00,74.8,66.0,29.00,NE,45,4.6,4.6,74,0.00,CLR,,0.04,WeatherDisplay:10.37,2013-05-22 15:47:00,
2013-05-22 11:49:00,75.0,66.6,29.00,NNE,22,2.3,2.3,75,0.00,CLR,,0.04,WeatherDisplay:10.37,2013-05-22 15:49:00,
2013-05-22 11:50:00,74.8,66.0,29.00,North,0,2.4,2.4,74,0.00,CLR,,0.04,WeatherDisplay:10.37,2013-05-22 15:50:00,
2013-05-22 11:52:00,74.8,66.0,29.00,NNE,22,8.1,8.1,74,0.00,CLR,,0.04,WeatherDisplay:10.37,2013-05-22 15:52:00,
2013-05-22 11:54:00,74.8,66.0,29.00,NE,45,3.5,3.5,74,0.00,CLR,,0.04,WeatherDisplay:10.37,2013-05-22 15:54:00,
2013-05-22 11:55:00,75.2,65.6,29.00,North,0,4.9,4.9,72,0.00,CLR,,0.04,WeatherDisplay:10.37,2013-05-22 15:55:00,
2013-05-22 11:57:00,75.6,65.5,29.00,NW,315,3.6,3.6,71,0.00,CLR,,0.04,WeatherDisplay:10.37,2013-05-22 15:57:00,
2013-05-22 11:58:00,76.1,65.6,29.00,NW,315,3.6,3.6,70,0.00,CLR,,0.04,WeatherDisplay:10.37,2013-05-22 15:58:00,
2013-05-22 11:59:00,76.1,65.6,29.00,West,270,3.5,3.5,70,0.00,CLR,,0.04,WeatherDisplay:10.37,2013-05-22 15:59:00,
2013-05-22 12:00:00,76.6,66.5,29.00,ENE,68,3.5,3.5,71,0.00,CLR,,0.04,WeatherDisplay:10.37,2013-05-22 16:00:00,
2013-05-22 12:02:00,77.4,67.2,29.00,NNE,22,8.1,8.1,71,0.00,CLR,,0.04,WeatherDisplay:10.37,2013-05-22 16:02:00,
2013-05-22 12:03:00,77.4,67.2,29.00,NNE,22,8.1,8.1,71,0.00,CLR,,0.04,WeatherDisplay:10.37,2013-05-22 16:03:00,
2013-05-22 12:04:00,77.2,66.2,29.00,NW,315,8.1,8.1,69,0.00,CLR,,0.04,WeatherDisplay:10.37,2013-05-22 16:04:00,
2013-05-22 12:05:00,77.0,66.0,28.97,NE,45,3.5,3.5,69,0.00,CLR,,0.04,WeatherDisplay:10.37,2013-05-22 16:05:00,
2013-05-22 12:07:00,77.0,66.0,28.97,North,0,6.2,6.2,69,0.00,CLR,,0.04,WeatherDisplay:10.37,2013-05-22 16:07:00,
2013-05-22 12:08:00,77.0,66.0,28.97,North,0,6.2,6.2,69,0.00,CLR,,0.04,WeatherDisplay:10.37,2013-05-22 16:08:00,
2013-05-22 12:09:00,77.0,65.6,28.97,NNE,22,3.5,3.5,68,0.00,CLR,,0.04,WeatherDisplay:10.37,2013-05-22 16:09:00,
2013-05-22 12:10:00,76.8,65.5,28.97,NE,45,3.5,3.5,68,0.00,CLR,,0.04,WeatherDisplay:10.37,2013-05-22 16:10:00,
2013-05-22 12:12:00,76.8,65.5,28.97,NW,315,4.6,4.6,68,0.00,CLR,,0.04,WeatherDisplay:10.37,2013-05-22 16:12:00,
2013-05-22 12:13:00,76.8,65.5,28.97,NW,315,5.4,5.4,68,0.00,CLR,,0.04,WeatherDisplay:10.37,2013-05-22 16:13:00,
2013-05-22 12:15:00,77.4,66.4,28.97,North,0,2.6,2.6,69,0.00,CLR,,0.04,WeatherDisplay:10.37,2013-05-22 16:15:00,
2013-05-22 12:16:00,77.5,66.1,28.97,NNE,22,2.4,2.4,68,0.00,CLR,,0.04,WeatherDisplay:10.37,2013-05-22 16:16:00,
2013-05-22 12:18:00,77.4,66.0,28.97,NW,315,7.6,7.6,68,0.00,CLR,,0.04,WeatherDisplay:10.37,2013-05-22 16:18:00,
2013-05-22 12:21:00,76.6,64.9,28.97,NE,45,4.9,4.9,67,0.00,CLR,,0.04,WeatherDisplay:10.37,2013-05-22 16:21:00,
2013-05-22 12:23:00,76.5,65.1,28.97,SE,135,5.9,5.9,68,0.00,CLR,,0.04,WeatherDisplay:10.37,2013-05-22 16:23:00,
2013-05-22 12:26:00,76.6,65.7,28.97,NE,45,5.8,5.8,69,0.00,CLR,,0.04,WeatherDisplay:10.37,2013-05-22 16:26:00,
2013-05-22 12:28:00,76.6,65.7,28.97,North,0,3.8,3.8,69,0.00,CLR,,0.04,WeatherDisplay:10.37,2013-05-22 16:28:00,
2013-05-22 12:29:00,76.5,65.1,28.97,NW,315,3.5,3.5,68,0.00,CLR,,0.04,WeatherDisplay:10.37,2013-05-22 16:29:00,
2013-05-22 12:31:00,77.5,66.1,28.97,NNW,338,2.3,2.3,68,0.00,CLR,,0.04,WeatherDisplay:10.37,2013-05-22 16:31:00,
2013-05-22 12:33:00,77.7,66.3,28.97,NW,315,2.3,2.3,68,0.00,CLR,,0.04,WeatherDisplay:10.37,2013-05-22 16:33:00,
2013-05-22 12:34:00,77.7,66.3,28.97,NW,315,3.5,3.5,68,0.00,CLR,,0.04,WeatherDisplay:10.37,2013-05-22 16:34:00,
2013-05-22 12:36:00,77.5,65.7,28.97,North,0,2.9,2.9,67,0.00,CLR,,0.04,WeatherDisplay:10.37,2013-05-22 16:36:00,
2013-05-22 12:38:00,77.2,64.5,28.97,NNE,22,6.2,6.2,65,0.00,CLR,,0.04,WeatherDisplay:10.37,2013-05-22 16:38:00,
2013-05-22 12:40:00,77.0,64.3,28.97,NNE,22,6.0,6.0,65,0.00,CLR,,0.04,WeatherDisplay:10.37,2013-05-22 16:40:00,
2013-05-22 12:41:00,77.2,64.9,28.97,North,0,7.4,7.4,66,0.00,CLR,,0.04,WeatherDisplay:10.37,2013-05-22 16:41:00,
2013-05-22 12:42:00,77.2,64.9,28.97,North,0,7.4,7.4,66,0.00,CLR,,0.04,WeatherDisplay:10.37,2013-05-22 16:42:00,
2013-05-22 12:43:00,77.4,65.1,28.97,NE,45,6.9,6.9,66,0.00,CLR,,0.04,WeatherDisplay:10.37,2013-05-22 16:43:00,
2013-05-22 12:44:00,77.4,65.1,28.97,NW,315,6.9,6.9,66,0.00,CLR,,0.04,WeatherDisplay:10.37,2013-05-22 16:44:00,
2013-05-22 12:45:00,77.4,64.7,28.97,North,0,3.5,3.5,65,0.00,CLR,,0.04,WeatherDisplay:10.37,2013-05-22 16:45:00,
2013-05-22 12:46:00,77.4,64.7,28.97,NW,315,4.6,4.6,65,0.00,CLR,,0.04,WeatherDisplay:10.37,2013-05-22 16:46:00,
2013-05-22 12:47:00,77.2,64.9,28.97,NE,45,4.6,4.6,66,0.00,CLR,,0.04,WeatherDisplay:10.37,2013-05-22 16:47:00,
2013-05-22 12:49:00,77.0,64.8,28.97,North,0,4.0,4.0,66,0.00,CLR,,0.04,WeatherDisplay:10.37,2013-05-22 16:49:00,
2013-05-22 12:50:00,77.0,64.8,28.97,North,0,4.6,4.6,66,0.00,CLR,,0.04,WeatherDisplay:10.37,2013-05-22 16:50:00,
2013-05-22 12:51:00,77.0,64.8,28.97,NNE,22,4.3,4.3,66,0.00,CLR,,0.04,WeatherDisplay:10.37,2013-05-22 16:51:00,
2013-05-22 12:52:00,76.5,64.7,28.97,NW,315,4.6,4.6,67,0.00,CLR,,0.04,WeatherDisplay:10.37,2013-05-22 16:52:00,
2013-05-22 12:54:00,76.5,64.7,28.97,NNW,338,2.9,2.9,67,0.00,CLR,,0.04,WeatherDisplay:10.37,2013-05-22 16:54:00,
2013-05-22 12:55:00,76.5,64.7,28.97,NNW,338,2.9,2.9,67,0.00,CLR,,0.04,WeatherDisplay:10.37,2013-05-22 16:55:00,
2013-05-22 12:56:00,76.6,64.9,28.97,NE,45,7.4,7.4,67,0.00,CLR,,0.04,WeatherDisplay:10.37,2013-05-22 16:56:00,
2013-05-22 12:57:00,76.5,64.3,28.97,NNE,22,6.9,6.9,66,0.00,CLR,,0.04,WeatherDisplay:10.37,2013-05-22 16:57:00,
2013-05-22 12:59:00,76.5,64.3,28.97,NE,45,6.9,6.9,66,0.00,CLR,,0.04,WeatherDisplay:10.37,2013-05-22 16:59:00,
2013-05-22 13:00:00,76.5,64.3,28.97,NE,45,6.9,6.9,66,0.00,CLR,,0.04,WeatherDisplay:10.37,2013-05-22 17:00:00,
2013-05-22 13:01:00,76.3,64.1,28.97,NW,315,3.5,3.5,66,0.00,CLR,,0.04,WeatherDisplay:10.37,2013-05-22 17:01:00,
2013-05-22 13:02:00,76.3,64.5,28.97,North,0,3.5,3.5,67,0.00,CLR,,0.04,WeatherDisplay:10.37,2013-05-22 17:02:00,
2013-05-22 13:05:00,76.3,64.1,28.97,NW,315,4.6,4.6,66,0.00,CLR,,0.04,WeatherDisplay:10.37,2013-05-22 17:05:00,
2013-05-22 13:07:00,76.5,64.3,28.97,ESE,112,2.3,2.3,66,0.00,CLR,,0.04,WeatherDisplay:10.37,2013-05-22 17:07:00,
2013-05-22 13:08:00,76.6,64.4,28.97,NW,315,2.9,2.9,66,0.00,CLR,,0.04,WeatherDisplay:10.37,2013-05-22 17:08:00,
2013-05-22 13:10:00,76.6,64.0,28.97,North,0,9.2,9.2,65,0.00,CLR,,0.04,WeatherDisplay:10.37,2013-05-22 17:10:00,
2013-05-22 13:11:00,76.8,64.2,28.97,North,0,9.2,9.2,65,0.00,CLR,,0.04,WeatherDisplay:10.37,2013-05-22 17:11:00,
2013-05-22 13:12:00,76.8,64.2,28.97,NW,315,5.8,5.8,65,0.00,CLR,,0.04,WeatherDisplay:10.37,2013-05-22 17:12:00,
2013-05-22 13:14:00,77.2,64.5,28.97,North,0,6.0,6.0,65,0.00,CLR,,0.04,WeatherDisplay:10.37,2013-05-22 17:14:00,
2013-05-22 13:15:00,77.2,64.1,28.97,NW,315,2.4,2.4,64,0.00,CLR,,0.04,WeatherDisplay:10.37,2013-05-22 17:15:00,
2013-05-22 13:16:00,77.2,64.1,28.97,North,0,3.6,3.6,64,0.00,CLR,,0.04,WeatherDisplay:10.37,2013-05-22 17:16:00,
2013-05-22 13:17:00,77.2,64.5,28.97,ENE,68,3.5,3.5,65,0.00,CLR,,0.04,WeatherDisplay:10.37,2013-05-22 17:17:00,
2013-05-22 13:19:00,77.2,64.5,28.97,NNE,22,4.6,4.6,65,0.00,CLR,,0.04,WeatherDisplay:10.37,2013-05-22 17:19:00,
2013-05-22 13:20:00,77.0,63.9,28.97,NNE,22,5.8,5.8,64,0.00,CLR,,0.04,WeatherDisplay:10.37,2013-05-22 17:20:00,
2013-05-22 13:21:00,77.0,63.9,28.97,NW,315,5.8,5.8,64,0.00,CLR,,0.04,WeatherDisplay:10.37,2013-05-22 17:21:00,
2013-05-22 13:22:00,76.8,63.7,28.97,North,0,5.8,5.8,64,0.00,CLR,,0.04,WeatherDisplay:10.37,2013-05-22 17:22:00,
2013-05-22 13:24:00,76.8,63.7,28.97,NW,315,4.6,4.6,64,0.00,CLR,,0.04,WeatherDisplay:10.37,2013-05-22 17:24:00,
2013-05-22 13:25:00,76.8,64.2,28.97,NE,45,3.5,3.5,65,0.00,CLR,,0.04,WeatherDisplay:10.37,2013-05-22 17:25:00,
2013-05-22 13:26:00,76.8,64.2,28.97,NE,45,3.5,3.5,65,0.00,CLR,,0.04,WeatherDisplay:10.37,2013-05-22 17:26:00,
2013-05-22 13:27:00,76.8,64.6,28.97,North,0,3.5,3.5,66,0.00,CLR,,0.04,WeatherDisplay:10.37,2013-05-22 17:27:00,
2013-05-22 13:29:00,76.6,64.0,28.97,NE,45,5.6,5.6,65,0.00,CLR,,0.04,WeatherDisplay:10.37,2013-05-22 17:29:00,
2013-05-22 13:30:00,76.6,64.0,28.97,North,0,5.8,5.8,65,0.00,CLR,,0.04,WeatherDisplay:10.37,2013-05-22 17:30:00,
2013-05-22 13:31:00,76.6,64.0,28.97,East,90,4.6,4.6,65,0.00,CLR,,0.04,WeatherDisplay:10.37,2013-05-22 17:31:00,
2013-05-22 13:32:00,76.6,64.0,28.97,NNE,22,4.6,4.6,65,0.00,CLR,,0.04,WeatherDisplay:10.37,2013-05-22 17:32:00,
2013-05-22 13:33:00,76.5,63.8,28.97,NE,45,4.6,4.6,65,0.00,CLR,,0.04,WeatherDisplay:10.37,2013-05-22 17:33:00,
2013-05-22 13:34:00,76.3,63.6,28.97,North,0,7.6,7.6,65,0.00,CLR,,0.04,WeatherDisplay:10.37,2013-05-22 17:34:00,
2013-05-22 13:36:00,75.9,63.3,28.97,NNE,22,8.1,8.1,65,0.00,CLR,,0.04,WeatherDisplay:10.37,2013-05-22 17:36:00,
2013-05-22 13:37:00,75.7,63.6,28.97,NE,45,4.6,4.6,66,0.00,CLR,,0.04,WeatherDisplay:10.37,2013-05-22 17:37:00,
2013-05-22 13:38:00,75.7,63.6,28.97,NE,45,4.6,4.6,66,0.00,CLR,,0.04,WeatherDisplay:10.37,2013-05-22 17:38:00,
2013-05-22 13:39:00,75.7,63.6,28.97,North,0,4.6,4.6,66,0.00,CLR,,0.04,WeatherDisplay:10.37,2013-05-22 17:39:00,
2013-05-22 13:41:00,75.4,63.7,28.97,NW,315,3.5,3.5,67,0.00,CLR,,0.04,WeatherDisplay:10.37,2013-05-22 17:41:00,
2013-05-22 13:42:00,75.4,63.7,28.97,NNE,22,3.5,3.5,67,0.00,CLR,,0.04,WeatherDisplay:10.37,2013-05-22 17:42:00,
2013-05-22 13:43:00,75.4,63.7,28.97,NNE,22,2.3,2.3,67,0.00,CLR,,0.04,WeatherDisplay:10.37,2013-05-22 17:43:00,
2013-05-22 13:44:00,75.2,63.5,28.97,NNE,22,4.6,4.6,67,0.00,CLR,,0.04,WeatherDisplay:10.37,2013-05-22 17:44:00,
2013-05-22 13:46:00,75.4,63.2,28.97,WNW,292,3.5,3.5,66,0.00,CLR,,0.04,WeatherDisplay:10.37,2013-05-22 17:46:00,
2013-05-22 13:47:00,75.4,63.2,28.97,NNW,338,6.0,6.0,66,0.00,CLR,,0.04,WeatherDisplay:10.37,2013-05-22 17:47:00,
2013-05-22 13:48:00,75.4,63.2,28.97,North,0,5.8,5.8,66,0.00,CLR,,0.04,WeatherDisplay:10.37,2013-05-22 17:48:00,
2013-05-22 13:50:00,75.4,63.7,28.97,NNE,22,8.1,8.1,67,0.00,CLR,,0.04,WeatherDisplay:10.37,2013-05-22 17:50:00,
2013-05-22 13:52:00,75.6,63.8,28.97,NW,315,8.1,8.1,67,0.00,CLR,,0.04,WeatherDisplay:10.37,2013-05-22 17:52:00,
2013-05-22 13:53:00,75.6,63.8,28.97,SE,135,2.3,2.3,67,0.00,CLR,,0.04,WeatherDisplay:10.37,2013-05-22 17:53:00,
2013-05-22 13:55:00,75.6,63.8,28.97,NNW,338,9.2,9.2,67,0.00,CLR,,0.04,WeatherDisplay:10.37,2013-05-22 17:55:00,
2013-05-22 13:57:00,75.6,63.8,28.97,NNW,338,9.2,9.2,67,0.00,CLR,,0.04,WeatherDisplay:10.37,2013-05-22 17:57:00,
2013-05-22 13:58:00,75.6,63.8,28.97,NNE,22,6.9,6.9,67,0.00,CLR,,0.04,WeatherDisplay:10.37,2013-05-22 17:58:00,
2013-05-22 14:00:00,75.7,64.0,28.97,North,0,3.8,3.8,67,0.00,CLR,,0.04,WeatherDisplay:10.37,2013-05-22 18:00:00,
2013-05-22 14:02:00,75.7,64.0,28.97,NNW,338,3.5,3.5,67,0.00,CLR,,0.04,WeatherDisplay:10.37,2013-05-22 18:02:00,
2013-05-22 14:03:00,75.7,64.0,28.97,NE,45,3.8,3.8,67,0.00,CLR,,0.04,WeatherDisplay:10.37,2013-05-22 18:03:00,
2013-05-22 14:06:00,75.9,64.6,28.97,NW,315,5.8,5.8,68,0.00,CLR,,0.04,WeatherDisplay:10.37,2013-05-22 18:06:00,
2013-05-22 14:07:00,75.9,64.6,28.97,NE,45,7.1,7.1,68,0.00,CLR,,0.04,WeatherDisplay:10.37,2013-05-22 18:07:00,
2013-05-22 14:09:00,76.3,64.5,28.97,NW,315,10.7,10.7,67,0.00,CLR,,0.04,WeatherDisplay:10.37,2013-05-22 18:09:00,
2013-05-22 14:11:00,76.8,65.0,28.97,SE,135,10.4,10.4,67,0.00,CLR,,0.04,WeatherDisplay:10.37,2013-05-22 18:11:00,
2013-05-22 14:12:00,77.5,65.3,28.97,NE,45,2.6,2.6,66,0.00,CLR,,0.04,WeatherDisplay:10.37,2013-05-22 18:12:00,
2013-05-22 14:14:00,78.8,66.5,28.97,NE,45,4.6,4.6,66,0.00,CLR,,0.04,WeatherDisplay:10.37,2013-05-22 18:14:00,
2013-05-22 14:15:00,79.5,65.8,28.97,WNW,292,4.6,4.6,63,0.00,CLR,,0.04,WeatherDisplay:10.37,2013-05-22 18:15:00,
2013-05-22 14:16:00,79.5,65.8,28.97,North,0,8.1,8.1,63,0.00,CLR,,0.04,WeatherDisplay:10.37,2013-05-22 18:16:00,
2013-05-22 14:17:00,79.9,65.7,28.97,NNE,22,8.1,8.1,62,0.00,CLR,,0.04,WeatherDisplay:10.37,2013-05-22 18:17:00,
2013-05-22 14:19:00,79.9,66.2,28.97,NNE,22,6.2,6.2,63,0.00,CLR,,0.04,WeatherDisplay:10.37,2013-05-22 18:19:00,
2013-05-22 14:20:00,80.1,65.9,28.97,North,0,6.0,6.0,62,0.00,CLR,,0.04,WeatherDisplay:10.37,2013-05-22 18:20:00,
2013-05-22 14:21:00,80.1,65.9,28.97,NE,45,5.8,5.8,62,0.00,CLR,,0.04,WeatherDisplay:10.37,2013-05-22 18:21:00,
2013-05-22 14:23:00,80.2,66.5,28.97,SW,225,4.6,4.6,63,0.00,CLR,,0.04,WeatherDisplay:10.37,2013-05-22 18:23:00,
2013-05-22 14:24:00,80.2,65.1,28.97,North,0,5.8,5.8,60,0.00,CLR,,0.04,WeatherDisplay:10.37,2013-05-22 18:24:00,
2013-05-22 14:25:00,79.2,64.6,28.97,North,0,7.1,7.1,61,0.00,CLR,,0.04,WeatherDisplay:10.37,2013-05-22 18:25:00,
2013-05-22 14:27:00,79.0,63.9,28.97,North,0,8.1,8.1,60,0.00,CLR,,0.04,WeatherDisplay:10.37,2013-05-22 18:27:00,
2013-05-22 14:28:00,79.0,63.9,28.97,NW,315,8.1,8.1,60,0.00,CLR,,0.04,WeatherDisplay:10.37,2013-05-22 18:28:00,
2013-05-22 14:29:00,79.3,64.2,28.97,NNE,22,8.1,8.1,60,0.00,CLR,,0.04,WeatherDisplay:10.37,2013-05-22 18:29:00,
2013-05-22 14:31:00,79.5,65.4,28.97,NW,315,6.9,6.9,62,0.00,CLR,,0.04,WeatherDisplay:10.37,2013-05-22 18:31:00,
2013-05-22 14:32:00,80.1,65.4,28.97,ESE,112,3.1,3.1,61,0.00,CLR,,0.04,WeatherDisplay:10.37,2013-05-22 18:32:00,
2013-05-22 14:33:00,80.1,65.4,28.94,ESE,112,3.1,3.1,61,0.00,CLR,,0.04,WeatherDisplay:10.37,2013-05-22 18:33:00,
2013-05-22 14:34:00,80.1,65.4,28.94,WNW,292,3.5,0.0,61,0.00,CLR,,0.04,WeatherDisplay:10.37,2013-05-22 18:34:00,
2013-05-22 14:35:00,79.9,65.7,28.94,WNW,292,6.4,6.4,62,0.00,CLR,,0.04,WeatherDisplay:10.37,2013-05-22 18:35:00,
2013-05-22 14:36:00,79.9,65.7,28.94,WNW,292,6.4,6.4,62,0.00,CLR,,0.04,WeatherDisplay:10.37,2013-05-22 18:36:00,
2013-05-22 14:37:00,79.0,64.4,28.94,NE,45,6.9,6.9,61,0.00,CLR,,0.04,WeatherDisplay:10.37,2013-05-22 18:37:00,
2013-05-22 14:38:00,79.0,64.4,28.94,East,90,6.9,6.9,61,0.00,CLR,,0.04,WeatherDisplay:10.37,2013-05-22 18:38:00,
2013-05-22 14:39:00,78.8,64.2,28.94,North,0,2.6,2.6,61,0.00,CLR,,0.04,WeatherDisplay:10.37,2013-05-22 18:39:00,
2013-05-22 14:40:00,78.8,64.2,28.94,NNW,338,2.9,2.9,61,0.00,CLR,,0.04,WeatherDisplay:10.37,2013-05-22 18:40:00,
2013-05-22 14:41:00,78.8,64.2,28.94,NE,45,7.6,7.6,61,0.00,CLR,,0.04,WeatherDisplay:10.37,2013-05-22 18:41:00,
2013-05-22 14:43:00,78.6,63.1,28.94,NW,315,5.8,5.8,59,0.00,CLR,,0.04,WeatherDisplay:10.37,2013-05-22 18:43:00,
2013-05-22 14:44:00,78.1,62.1,28.94,NNE,22,4.6,4.6,58,0.00,CLR,,0.04,WeatherDisplay:10.37,2013-05-22 18:44:00,
2013-05-22 14:45:00,78.1,62.1,28.94,West,270,7.8,7.8,58,0.00,CLR,,0.04,WeatherDisplay:10.37,2013-05-22 18:45:00,
2013-05-22 14:46:00,78.1,62.1,28.94,West,270,7.8,7.8,58,0.00,CLR,,0.04,WeatherDisplay:10.37,2013-05-22 18:46:00,
2013-05-22 14:48:00,77.0,61.6,28.94,North,0,6.9,6.9,59,0.00,CLR,,0.04,WeatherDisplay:10.37,2013-05-22 18:48:00,
2013-05-22 14:49:00,77.0,61.6,28.94,North,0,6.9,6.9,59,0.00,CLR,,0.04,WeatherDisplay:10.37,2013-05-22 18:49:00,
2013-05-22 14:50:00,76.5,61.5,28.94,ENE,68,3.5,3.5,60,0.00,CLR,,0.04,WeatherDisplay:10.37,2013-05-22 18:50:00,
2013-05-22 14:51:00,76.5,61.5,28.94,North,0,4.3,4.3,60,0.00,CLR,,0.04,WeatherDisplay:10.37,2013-05-22 18:51:00,
2013-05-22 14:53:00,75.7,62.2,28.94,East,90,4.6,4.6,63,0.00,CLR,,0.04,WeatherDisplay:10.37,2013-05-22 18:53:00,
2013-05-22 14:54:00,75.7,62.2,28.94,NE,45,4.6,4.6,63,0.00,CLR,,0.04,WeatherDisplay:10.37,2013-05-22 18:54:00,
2013-05-22 14:55:00,75.7,62.2,28.94,NNE,22,3.6,3.6,63,0.00,CLR,,0.04,WeatherDisplay:10.37,2013-05-22 18:55:00,
2013-05-22 14:56:00,75.2,62.2,28.94,North,0,10.7,10.7,64,0.00,CLR,,0.04,WeatherDisplay:10.37,2013-05-22 18:56:00,
2013-05-22 14:58:00,74.7,62.1,28.94,North,0,3.5,3.5,65,0.00,CLR,,0.04,WeatherDisplay:10.37,2013-05-22 18:58:00,
2013-05-22 14:59:00,74.7,62.1,28.94,North,0,2.3,2.3,65,0.00,CLR,,0.04,WeatherDisplay:10.37,2013-05-22 18:59:00,
2013-05-22 15:00:00,74.7,62.1,28.94,North,0,2.3,2.3,65,0.00,CLR,,0.04,WeatherDisplay:10.37,2013-05-22 19:00:00,
2013-05-22 15:01:00,74.7,62.5,28.94,NW,315,3.5,3.5,66,0.00,CLR,,0.04,WeatherDisplay:10.37,2013-05-22 19:01:00,
2013-05-22 15:02:00,74.7,62.5,28.94,NW,315,3.5,3.5,66,0.00,CLR,,0.04,WeatherDisplay:10.37,2013-05-22 19:02:00,
2013-05-22 15:04:00,74.8,62.7,28.94,SE,135,4.0,4.0,66,0.00,CLR,,0.04,WeatherDisplay:10.37,2013-05-22 19:04:00,
2013-05-22 15:05:00,74.8,62.3,28.94,NNE,22,10.4,10.4,65,0.00,CLR,,0.04,WeatherDisplay:10.37,2013-05-22 19:05:00,
2013-05-22 15:07:00,75.2,62.2,28.94,North,0,5.8,5.8,64,0.00,CLR,,0.04,WeatherDisplay:10.37,2013-05-22 19:07:00,
2013-05-22 15:09:00,75.2,62.2,28.94,SW,225,2.3,2.3,64,0.00,CLR,,0.04,WeatherDisplay:10.37,2013-05-22 19:09:00,
2013-05-22 15:11:00,75.2,62.2,28.94,North,0,5.9,5.9,64,0.00,CLR,,0.04,WeatherDisplay:10.37,2013-05-22 19:11:00,
2013-05-22 15:12:00,75.4,62.4,28.94,SW,225,5.8,5.8,64,0.00,CLR,,0.04,WeatherDisplay:10.37,2013-05-22 19:12:00,
2013-05-22 15:14:00,75.6,62.1,28.94,North,0,4.6,4.6,63,0.00,CLR,,0.04,WeatherDisplay:10.37,2013-05-22 19:14:00,
2013-05-22 15:16:00,75.7,62.7,28.94,NE,45,5.8,5.8,64,0.00,CLR,,0.04,WeatherDisplay:10.37,2013-05-22 19:16:00,
2013-05-22 15:17:00,75.9,62.4,28.94,NW,315,6.9,6.9,63,0.00,CLR,,0.04,WeatherDisplay:10.37,2013-05-22 19:17:00,
2013-05-22 15:19:00,75.9,62.0,28.94,NE,45,12.7,12.7,62,0.00,CLR,,0.04,WeatherDisplay:10.37,2013-05-22 19:19:00,
2013-05-22 15:20:00,76.1,62.1,28.94,NW,315,3.5,3.5,62,0.00,CLR,,0.04,WeatherDisplay:10.37,2013-05-22 19:20:00,
2013-05-22 15:21:00,76.1,62.1,28.94,NE,45,7.8,7.8,62,0.00,CLR,,0.04,WeatherDisplay:10.37,2013-05-22 19:21:00,
2013-05-22 15:23:00,76.3,61.4,28.94,NE,45,8.1,8.1,60,0.00,CLR,,0.04,WeatherDisplay:10.37,2013-05-22 19:23:00,
2013-05-22 15:24:00,76.6,62.2,28.94,NNW,338,7.1,7.1,61,0.00,CLR,,0.04,WeatherDisplay:10.37,2013-05-22 19:24:00,
2013-05-22 15:25:00,77.4,61.9,28.94,NE,45,6.9,6.9,59,0.00,CLR,,0.04,WeatherDisplay:10.37,2013-05-22 19:25:00,
2013-05-22 15:26:00,77.4,61.9,28.94,NE,45,6.9,6.9,59,0.00,CLR,,0.04,WeatherDisplay:10.37,2013-05-22 19:26:00,
2013-05-22 15:28:00,78.1,62.1,28.94,NNW,338,6.9,6.9,58,0.00,CLR,,0.04,WeatherDisplay:10.37,2013-05-22 19:28:00,
2013-05-22 15:29:00,77.9,61.9,28.94,NE,45,5.8,5.8,58,0.00,CLR,,0.04,WeatherDisplay:10.37,2013-05-22 19:29:00,
2013-05-22 15:30:00,77.9,61.9,28.94,SE,135,5.9,5.9,58,0.00,CLR,,0.04,WeatherDisplay:10.37,2013-05-22 19:30:00,
2013-05-22 15:31:00,78.4,62.4,28.94,ENE,68,7.1,7.1,58,0.00,CLR,,0.04,WeatherDisplay:10.37,2013-05-22 19:31:00,
2013-05-22 15:33:00,79.0,62.4,28.94,NNW,338,6.9,6.9,57,0.00,CLR,,0.04,WeatherDisplay:10.37,2013-05-22 19:33:00,
2013-05-22 15:34:00,79.7,63.1,28.94,NW,315,4.6,4.6,57,0.00,CLR,,0.04,WeatherDisplay:10.37,2013-05-22 19:34:00,
2013-05-22 15:36:00,79.7,62.1,28.94,NW,315,6.9,6.9,55,0.00,CLR,,0.04,WeatherDisplay:10.37,2013-05-22 19:36:00,
2013-05-22 15:38:00,79.7,62.6,28.94,NNW,338,3.6,3.6,56,0.00,CLR,,0.04,WeatherDisplay:10.37,2013-05-22 19:38:00,
2013-05-22 15:39:00,79.7,62.6,28.94,NE,45,4.3,4.3,56,0.00,CLR,,0.04,WeatherDisplay:10.37,2013-05-22 19:39:00,
2013-05-22 15:41:00,79.5,61.4,28.94,NNE,22,3.6,3.6,54,0.00,CLR,,0.04,WeatherDisplay:10.37,2013-05-22 19:41:00,
2013-05-22 15:42:00,79.5,61.4,28.94,NE,45,4.6,4.6,54,0.00,CLR,,0.04,WeatherDisplay:10.37,2013-05-22 19:42:00,
2013-05-22 15:43:00,79.3,60.7,28.94,North,0,4.6,4.6,53,0.00,CLR,,0.04,WeatherDisplay:10.37,2013-05-22 19:43:00,
2013-05-22 15:44:00,79.3,60.7,28.94,North,0,4.6,4.6,53,0.00,CLR,,0.04,WeatherDisplay:10.37,2013-05-22 19:44:00,
2013-05-22 15:45:00,79.3,61.2,28.94,NE,45,3.5,3.5,54,0.00,CLR,,0.04,WeatherDisplay:10.37,2013-05-22 19:45:00,
2013-05-22 15:46:00,79.3,61.2,28.94,NE,45,2.9,2.9,54,0.00,CLR,,0.04,WeatherDisplay:10.37,2013-05-22 19:46:00,
2013-05-22 15:48:00,79.9,61.2,28.94,North,0,10.7,10.7,53,0.00,CLR,,0.04,WeatherDisplay:10.37,2013-05-22 19:48:00,
2013-05-22 15:49:00,80.2,61.6,28.94,East,90,10.7,10.7,53,0.00,CLR,,0.04,WeatherDisplay:10.37,2013-05-22 19:49:00,
2013-05-22 15:50:00,80.1,60.3,28.94,NE,45,10.9,10.9,51,0.00,CLR,,0.04,WeatherDisplay:10.37,2013-05-22 19:50:00,
2013-05-22 15:51:00,80.1,60.3,28.94,ESE,112,11.5,11.5,51,0.00,CLR,,0.04,WeatherDisplay:10.37,2013-05-22 19:51:00,
2013-05-22 15:53:00,80.4,61.2,28.94,NW,315,5.8,5.8,52,0.00,CLR,,0.04,WeatherDisplay:10.37,2013-05-22 19:53:00,
2013-05-22 15:54:00,80.4,61.2,28.94,NW,315,5.8,5.8,52,0.00,CLR,,0.04,WeatherDisplay:10.37,2013-05-22 19:54:00,
2013-05-22 15:55:00,80.4,61.2,28.94,NNW,338,12.5,12.5,52,0.00,CLR,,0.04,WeatherDisplay:10.37,2013-05-22 19:55:00,
2013-05-22 15:56:00,80.4,61.2,28.94,NW,315,12.7,12.7,52,0.00,CLR,,0.04,WeatherDisplay:10.37,2013-05-22 19:56:00,
2013-05-22 15:58:00,80.4,60.6,28.94,NE,45,4.6,4.6,51,0.00,CLR,,0.04,WeatherDisplay:10.37,2013-05-22 19:58:00,
2013-05-22 15:59:00,80.8,61.0,28.94,SE,135,4.6,4.6,51,0.00,CLR,,0.04,WeatherDisplay:10.37,2013-05-22 19:59:00,
2013-05-22 16:00:00,80.8,61.0,28.94,North,0,3.5,3.5,51,0.00,CLR,,0.04,WeatherDisplay:10.37,2013-05-22 20:00:00,
2013-05-22 16:02:00,81.0,61.1,28.94,NE,45,6.9,6.9,51,0.00,CLR,,0.04,WeatherDisplay:10.37,2013-05-22 20:02:00,
2013-05-22 16:03:00,81.3,62.0,28.94,NW,315,6.9,6.9,52,0.00,CLR,,0.04,WeatherDisplay:10.37,2013-05-22 20:03:00,
2013-05-22 16:04:00,81.3,62.0,28.94,ESE,112,6.9,6.9,52,0.00,CLR,,0.04,WeatherDisplay:10.37,2013-05-22 20:04:00,
2013-05-22 16:05:00,81.9,62.0,28.94,NE,45,5.8,5.8,51,0.00,CLR,,0.04,WeatherDisplay:10.37,2013-05-22 20:05:00,
2013-05-22 16:08:00,81.7,62.3,28.94,NW,315,8.1,8.1,52,0.00,CLR,,0.04,WeatherDisplay:10.37,2013-05-22 20:08:00,
2013-05-22 16:09:00,81.5,61.6,28.94,NW,315,7.6,7.6,51,0.00,CLR,,0.04,WeatherDisplay:10.37,2013-05-22 20:09:00,
2013-05-22 16:10:00,81.5,61.6,28.94,NE,45,8.1,8.1,51,0.00,CLR,,0.04,WeatherDisplay:10.37,2013-05-22 20:10:00,
2013-05-22 16:11:00,81.5,61.6,28.94,NE,45,8.1,8.1,51,0.00,CLR,,0.04,WeatherDisplay:10.37,2013-05-22 20:11:00,
2013-05-22 16:13:00,81.3,60.9,28.94,North,0,8.1,8.1,50,0.00,CLR,,0.04,WeatherDisplay:10.37,2013-05-22 20:13:00,
2013-05-22 16:15:00,81.5,61.1,28.94,NE,45,4.6,4.6,50,0.00,CLR,,0.04,WeatherDisplay:10.37,2013-05-22 20:15:00,
2013-05-22 16:16:00,81.5,61.1,28.94,West,270,5.8,5.8,50,0.00,CLR,,0.04,WeatherDisplay:10.37,2013-05-22 20:16:00,
2013-05-22 16:18:00,81.7,61.8,28.94,NE,45,2.3,2.3,51,0.00,CLR,,0.04,WeatherDisplay:10.37,2013-05-22 20:18:00,
2013-05-22 16:19:00,81.7,61.8,28.94,NE,45,2.3,2.3,51,0.00,CLR,,0.04,WeatherDisplay:10.37,2013-05-22 20:19:00,
2013-05-22 16:20:00,81.0,60.6,28.94,NNE,22,3.5,3.5,50,0.00,CLR,,0.04,WeatherDisplay:10.37,2013-05-22 20:20:00,
2013-05-22 16:21:00,81.0,60.6,28.94,SE,135,7.1,7.1,50,0.00,CLR,,0.04,WeatherDisplay:10.37,2013-05-22 20:21:00,
2013-05-22 16:22:00,81.0,60.6,28.94,NE,45,6.9,6.9,50,0.00,CLR,,0.04,WeatherDisplay:10.37,2013-05-22 20:22:00,
2013-05-22 16:24:00,80.8,60.4,28.94,NE,45,4.6,4.6,50,0.00,CLR,,0.04,WeatherDisplay:10.37,2013-05-22 20:24:00,
2013-05-22 16:26:00,81.0,61.1,28.94,West,270,2.3,2.3,51,0.00,CLR,,0.04,WeatherDisplay:10.37,2013-05-22 20:26:00,
2013-05-22 16:27:00,81.0,61.1,28.94,NE,45,5.4,5.4,51,0.00,CLR,,0.04,WeatherDisplay:10.37,2013-05-22 20:27:00,
2013-05-22 16:29:00,80.8,60.4,28.94,North,0,6.0,6.0,50,0.00,CLR,,0.04,WeatherDisplay:10.37,2013-05-22 20:29:00,
2013-05-22 16:30:00,80.8,60.4,28.94,North,0,5.8,5.8,50,0.00,CLR,,0.04,WeatherDisplay:10.37,2013-05-22 20:30:00,
2013-05-22 16:31:00,81.0,60.6,28.94,North,0,5.8,5.8,50,0.00,CLR,,0.04,WeatherDisplay:10.37,2013-05-22 20:31:00,
2013-05-22 16:32:00,81.0,60.6,28.94,NNE,22,4.6,4.6,50,0.00,CLR,,0.04,WeatherDisplay:10.37,2013-05-22 20:32:00,
2013-05-22 16:34:00,81.0,60.0,28.91,NE,45,4.9,4.9,49,0.00,CLR,,0.04,WeatherDisplay:10.37,2013-05-22 20:34:00,
2013-05-22 16:35:00,81.0,60.0,28.91,NNW,338,4.6,4.6,49,0.00,CLR,,0.04,WeatherDisplay:10.37,2013-05-22 20:35:00,
2013-05-22 16:36:00,81.3,60.3,28.91,NW,315,4.7,4.7,49,0.00,CLR,,0.04,WeatherDisplay:10.37,2013-05-22 20:36:00,
2013-05-22 16:37:00,81.3,60.3,28.91,North,0,4.6,4.6,49,0.00,CLR,,0.04,WeatherDisplay:10.37,2013-05-22 20:37:00,
2013-05-22 16:40:00,81.9,60.2,28.91,North,0,8.1,8.1,48,0.00,CLR,,0.04,WeatherDisplay:10.37,2013-05-22 20:40:00,
2013-05-22 16:41:00,82.2,60.6,28.91,North,0,3.5,3.5,48,0.00,CLR,,0.04,WeatherDisplay:10.37,2013-05-22 20:41:00,
2013-05-22 16:42:00,82.2,60.6,28.91,West,270,5.6,5.6,48,0.00,CLR,,0.04,WeatherDisplay:10.37,2013-05-22 20:42:00,
2013-05-22 16:45:00,82.6,59.7,28.91,NE,45,6.9,6.9,46,0.00,CLR,,0.04,WeatherDisplay:10.37,2013-05-22 20:45:00,
2013-05-22 16:47:00,82.8,60.5,28.91,NW,315,4.7,4.7,47,0.00,CLR,,0.04,WeatherDisplay:10.37,2013-05-22 20:47:00,
2013-05-22 16:50:00,82.6,59.7,28.91,NE,45,5.8,5.8,46,0.00,CLR,,0.04,WeatherDisplay:10.37,2013-05-22 20:50:00,
2013-05-22 16:52:00,82.6,59.7,28.91,NW,315,4.3,4.3,46,0.00,CLR,,0.04,WeatherDisplay:10.37,2013-05-22 20:52:00,
2013-05-22 16:55:00,82.6,59.7,28.91,NE,45,2.6,2.6,46,0.00,CLR,,0.04,WeatherDisplay:10.37,2013-05-22 20:55:00,
2013-05-22 16:57:00,82.9,60.0,28.91,NW,315,3.5,3.5,46,0.00,CLR,,0.04,WeatherDisplay:10.37,2013-05-22 20:57:00,
2013-05-22 16:58:00,82.9,60.6,28.91,NE,45,3.8,3.8,47,0.00,CLR,,0.04,WeatherDisplay:10.37,2013-05-22 20:58:00,
2013-05-22 17:00:00,82.9,60.0,28.91,NW,315,6.9,6.9,46,0.00,CLR,,0.04,WeatherDisplay:10.37,2013-05-22 21:00:00,
2013-05-22 17:01:00,82.8,59.3,28.91,NW,315,6.9,6.9,45,0.00,CLR,,0.04,WeatherDisplay:10.37,2013-05-22 21:01:00,
2013-05-22 17:02:00,82.8,59.3,28.91,SE,135,6.9,6.9,45,0.00,CLR,,0.04,WeatherDisplay:10.37,2013-05-22 21:02:00,
2013-05-22 17:03:00,82.8,59.9,28.91,NE,45,6.9,6.9,46,0.00,CLR,,0.04,WeatherDisplay:10.37,2013-05-22 21:03:00,
2013-05-22 17:05:00,82.0,59.2,28.91,NE,45,6.2,6.2,46,0.00,CLR,,0.04,WeatherDisplay:10.37,2013-05-22 21:05:00,
2013-05-22 17:06:00,82.4,58.9,28.91,NNE,22,5.8,5.8,45,0.00,CLR,,0.04,WeatherDisplay:10.37,2013-05-22 21:06:00,
2013-05-22 17:07:00,82.4,58.9,28.91,NE,45,5.8,5.8,45,0.00,CLR,,0.04,WeatherDisplay:10.37,2013-05-22 21:07:00,
2013-05-22 17:08:00,81.9,59.1,28.91,West,270,3.5,3.5,46,0.00,CLR,,0.04,WeatherDisplay:10.37,2013-05-22 21:08:00,
2013-05-22 17:10:00,81.9,59.1,28.91,NE,45,4.9,4.9,46,0.00,CLR,,0.04,WeatherDisplay:10.37,2013-05-22 21:10:00,
2013-05-22 17:11:00,81.9,59.1,28.91,NW,315,4.6,4.6,46,0.00,CLR,,0.04,WeatherDisplay:10.37,2013-05-22 21:11:00,
2013-05-22 17:12:00,82.0,58.6,28.91,NE,45,3.8,3.8,45,0.00,CLR,,0.04,WeatherDisplay:10.37,2013-05-22 21:12:00,
2013-05-22 17:13:00,81.9,58.4,28.91,NE,45,4.9,4.9,45,0.00,CLR,,0.04,WeatherDisplay:10.37,2013-05-22 21:13:00,
2013-05-22 17:15:00,82.2,58.8,28.91,NE,45,3.5,3.5,45,0.00,CLR,,0.04,WeatherDisplay:10.37,2013-05-22 21:15:00,
2013-05-22 17:16:00,82.2,58.8,28.91,North,0,5.8,5.8,45,0.00,CLR,,0.04,WeatherDisplay:10.37,2013-05-22 21:16:00,
2013-05-22 17:17:00,82.6,59.1,28.91,North,0,5.8,5.8,45,0.00,CLR,,0.04,WeatherDisplay:10.37,2013-05-22 21:17:00,
2013-05-22 17:18:00,82.6,59.1,28.91,NW,315,3.6,3.6,45,0.00,CLR,,0.04,WeatherDisplay:10.37,2013-05-22 21:18:00,
2013-05-22 17:20:00,82.2,58.8,28.91,NW,315,3.8,3.8,45,0.00,CLR,,0.04,WeatherDisplay:10.37,2013-05-22 21:20:00,
2013-05-22 17:21:00,82.2,58.8,28.91,North,0,3.5,3.5,45,0.00,CLR,,0.04,WeatherDisplay:10.37,2013-05-22 21:21:00,
2013-05-22 17:22:00,81.9,58.4,28.91,WNW,292,3.5,3.5,45,0.00,CLR,,0.04,WeatherDisplay:10.37,2013-05-22 21:22:00,
2013-05-22 17:23:00,81.9,58.4,28.91,WNW,292,3.5,3.5,45,0.00,CLR,,0.04,WeatherDisplay:10.37,2013-05-22 21:23:00,
2013-05-22 17:25:00,81.7,58.3,28.91,NNE,22,5.6,5.6,45,0.00,CLR,,0.04,WeatherDisplay:10.37,2013-05-22 21:25:00,
2013-05-22 17:27:00,81.7,58.3,28.91,NE,45,5.8,5.8,45,0.00,CLR,,0.04,WeatherDisplay:10.37,2013-05-22 21:27:00,
2013-05-22 17:28:00,81.5,58.1,28.91,NW,315,4.0,4.0,45,0.00,CLR,,0.04,WeatherDisplay:10.37,2013-05-22 21:28:00,
2013-05-22 17:29:00,81.5,58.1,28.91,NW,315,4.0,4.0,45,0.00,CLR,,0.04,WeatherDisplay:10.37,2013-05-22 21:29:00,
2013-05-22 17:30:00,81.1,57.8,28.91,East,90,1.2,1.2,45,0.00,CLR,,0.04,WeatherDisplay:10.37,2013-05-22 21:30:00,
2013-05-22 17:32:00,81.0,57.6,28.91,SE,135,1.2,1.2,45,0.00,CLR,,0.04,WeatherDisplay:10.37,2013-05-22 21:32:00,
2013-05-22 17:33:00,80.8,57.5,28.91,North,0,4.6,4.6,45,0.00,CLR,,0.04,WeatherDisplay:10.37,2013-05-22 21:33:00,
2013-05-22 17:34:00,80.8,57.5,28.91,NW,315,4.6,4.6,45,0.00,CLR,,0.04,WeatherDisplay:10.37,2013-05-22 21:34:00,
2013-05-22 17:35:00,80.6,57.3,28.91,NW,315,5.8,5.8,45,0.00,CLR,,0.04,WeatherDisplay:10.37,2013-05-22 21:35:00,
2013-05-22 17:37:00,80.2,57.0,28.91,North,0,8.5,8.5,45,0.00,CLR,,0.04,WeatherDisplay:10.37,2013-05-22 21:37:00,
2013-05-22 17:38:00,79.9,57.3,28.91,North,0,8.5,8.5,46,0.00,CLR,,0.04,WeatherDisplay:10.37,2013-05-22 21:38:00,
2013-05-22 17:39:00,79.9,57.3,28.91,NNE,22,8.1,8.1,46,0.00,CLR,,0.04,WeatherDisplay:10.37,2013-05-22 21:39:00,
2013-05-22 17:40:00,80.1,57.4,28.91,East,90,3.5,3.5,46,0.00,CLR,,0.04,WeatherDisplay:10.37,2013-05-22 21:40:00,
2013-05-22 17:42:00,78.8,56.9,28.91,North,0,4.9,4.9,47,0.00,CLR,,0.04,WeatherDisplay:10.37,2013-05-22 21:42:00,
2013-05-22 17:43:00,78.8,56.9,28.91,NW,315,4.6,4.6,47,0.00,CLR,,0.04,WeatherDisplay:10.37,2013-05-22 21:43:00,
2013-05-22 17:44:00,78.6,57.3,28.91,North,0,4.6,4.6,48,0.00,CLR,,0.04,WeatherDisplay:10.37,2013-05-22 21:44:00,
2013-05-22 17:46:00,78.4,57.1,28.91,NE,45,4.6,4.6,48,0.00,CLR,,0.04,WeatherDisplay:10.37,2013-05-22 21:46:00,
2013-05-22 17:47:00,78.4,57.1,28.91,ENE,68,2.9,2.9,48,0.00,CLR,,0.04,WeatherDisplay:10.37,2013-05-22 21:47:00,
2013-05-22 17:48:00,78.4,57.1,28.91,ENE,68,2.9,2.9,48,0.00,CLR,,0.04,WeatherDisplay:10.37,2013-05-22 21:48:00,
2013-05-22 17:49:00,78.6,57.3,28.91,NE,45,2.4,2.4,48,0.00,CLR,,0.04,WeatherDisplay:10.37,2013-05-22 21:49:00,
2013-05-22 17:51:00,78.8,56.9,28.91,NE,45,5.8,5.8,47,0.00,CLR,,0.04,WeatherDisplay:10.37,2013-05-22 21:51:00,
2013-05-22 17:53:00,79.0,56.4,28.91,SW,225,5.9,5.9,46,0.00,CLR,,0.04,WeatherDisplay:10.37,2013-05-22 21:53:00,
2013-05-22 17:54:00,79.2,56.6,28.91,NW,315,5.8,5.8,46,0.00,CLR,,0.04,WeatherDisplay:10.37,2013-05-22 21:54:00,
2013-05-22 17:56:00,79.2,56.6,28.91,SE,135,3.5,3.5,46,0.00,CLR,,0.04,WeatherDisplay:10.37,2013-05-22 21:56:00,
2013-05-22 17:58:00,79.2,56.0,28.91,North,0,9.2,9.2,45,0.00,CLR,,0.04,WeatherDisplay:10.37,2013-05-22 21:58:00,
2013-05-22 17:59:00,79.2,56.0,28.91,NE,45,5.8,5.8,45,0.00,CLR,,0.04,WeatherDisplay:10.37,2013-05-22 21:59:00,
2013-05-22 18:00:00,79.2,56.0,28.91,NE,45,5.8,5.8,45,0.00,CLR,,0.04,WeatherDisplay:10.37,2013-05-22 22:00:00,
2013-05-22 18:01:00,79.2,56.0,28.91,NE,45,3.5,3.5,45,0.00,CLR,,0.04,WeatherDisplay:10.37,2013-05-22 22:01:00,
2013-05-22 18:03:00,79.0,55.8,28.91,NNE,22,5.8,5.8,45,0.00,CLR,,0.04,WeatherDisplay:10.37,2013-05-22 22:03:00,
2013-05-22 18:05:00,79.0,55.8,28.91,WNW,292,5.8,5.8,45,0.00,CLR,,0.04,WeatherDisplay:10.37,2013-05-22 22:05:00,
2013-05-22 18:06:00,79.0,55.2,28.91,East,90,10.7,10.7,44,0.00,CLR,,0.04,WeatherDisplay:10.37,2013-05-22 22:06:00,
2013-05-22 18:08:00,78.8,55.0,28.91,North,0,6.2,6.2,44,0.00,CLR,,0.04,WeatherDisplay:10.37,2013-05-22 22:08:00,
2013-05-22 18:09:00,78.8,55.0,28.91,SSE,158,5.9,5.9,44,0.00,CLR,,0.04,WeatherDisplay:10.37,2013-05-22 22:09:00,
2013-05-22 18:10:00,78.8,55.0,28.91,North,0,5.8,5.8,44,0.00,CLR,,0.04,WeatherDisplay:10.37,2013-05-22 22:10:00,
2013-05-22 18:11:00,78.8,55.7,28.91,North,0,8.5,8.5,45,0.00,CLR,,0.04,WeatherDisplay:10.37,2013-05-22 22:11:00,
2013-05-22 18:13:00,78.6,55.5,28.91,North,0,7.8,7.8,45,0.00,CLR,,0.04,WeatherDisplay:10.37,2013-05-22 22:13:00,
2013-05-22 18:14:00,78.6,55.5,28.91,North,0,7.8,7.8,45,0.00,CLR,,0.04,WeatherDisplay:10.37,2013-05-22 22:14:00,
2013-05-22 18:15:00,78.6,55.5,28.91,North,0,12.7,12.7,45,0.00,CLR,,0.04,WeatherDisplay:10.37,2013-05-22 22:15:00,
2013-05-22 18:17:00,78.6,55.5,28.91,NW,315,12.7,12.7,45,0.00,CLR,,0.04,WeatherDisplay:10.37,2013-05-22 22:17:00,
2013-05-22 18:19:00,78.4,55.9,28.94,NE,45,8.1,8.1,46,0.00,CLR,,0.04,WeatherDisplay:10.37,2013-05-22 22:19:00,
2013-05-22 18:20:00,78.4,55.9,28.94,NW,315,8.1,8.1,46,0.00,CLR,,0.04,WeatherDisplay:10.37,2013-05-22 22:20:00,
2013-05-22 18:22:00,77.9,55.5,28.94,North,0,6.9,6.9,46,0.00,CLR,,0.04,WeatherDisplay:10.37,2013-05-22 22:22:00,
2013-05-22 18:24:00,77.4,55.0,28.94,NE,45,8.5,8.5,46,0.00,CLR,,0.04,WeatherDisplay:10.37,2013-05-22 22:24:00,
2013-05-22 18:25:00,77.4,55.0,28.94,NW,315,8.1,8.1,46,0.00,CLR,,0.04,WeatherDisplay:10.37,2013-05-22 22:25:00,
2013-05-22 18:26:00,76.8,55.1,28.94,North,0,8.1,8.1,47,0.00,CLR,,0.04,WeatherDisplay:10.37,2013-05-22 22:26:00,
2013-05-22 18:27:00,76.5,55.3,28.94,North,0,4.9,4.9,48,0.00,CLR,,0.04,WeatherDisplay:10.37,2013-05-22 22:27:00,
2013-05-22 18:29:00,76.5,55.3,28.94,East,90,8.1,8.1,48,0.00,CLR,,0.04,WeatherDisplay:10.37,2013-05-22 22:29:00,
2013-05-22 18:30:00,76.1,56.1,28.94,NNE,22,8.1,8.1,50,0.00,CLR,,0.04,WeatherDisplay:10.37,2013-05-22 22:30:00,
2013-05-22 18:31:00,75.6,56.2,28.94,NNE,22,5.8,5.8,51,0.00,CLR,,0.04,WeatherDisplay:10.37,2013-05-22 22:31:00,
2013-05-22 18:33:00,75.4,56.5,28.94,North,0,3.5,3.5,52,0.00,CLR,,0.04,WeatherDisplay:10.37,2013-05-22 22:33:00,
2013-05-22 18:34:00,75.2,56.9,28.94,North,0,3.5,3.5,53,0.00,CLR,,0.04,WeatherDisplay:10.37,2013-05-22 22:34:00,
2013-05-22 18:35:00,75.2,56.9,28.94,NW,315,3.5,3.5,53,0.00,CLR,,0.04,WeatherDisplay:10.37,2013-05-22 22:35:00,
2013-05-22 18:36:00,75.2,56.9,28.94,East,90,3.6,3.6,53,0.00,CLR,,0.04,WeatherDisplay:10.37,2013-05-22 22:36:00,
2013-05-22 18:37:00,75.2,56.9,28.94,ENE,68,3.5,3.5,53,0.00,CLR,,0.04,WeatherDisplay:10.37,2013-05-22 22:37:00,
2013-05-22 18:39:00,74.7,57.9,28.94,NW,315,5.9,5.9,56,0.00,CLR,,0.04,WeatherDisplay:10.37,2013-05-22 22:39:00,
2013-05-22 18:40:00,74.7,57.9,28.94,NE,45,6.0,6.0,56,0.00,CLR,,0.04,WeatherDisplay:10.37,2013-05-22 22:40:00,
2013-05-22 18:41:00,74.5,58.2,28.94,NE,45,5.8,5.8,57,0.00,CLR,,0.04,WeatherDisplay:10.37,2013-05-22 22:41:00,
2013-05-22 18:42:00,74.5,58.2,28.94,NE,45,5.8,5.8,57,0.00,CLR,,0.04,WeatherDisplay:10.37,2013-05-22 22:42:00,
2013-05-22 18:43:00,74.5,58.2,28.94,NW,315,5.8,5.8,57,0.00,CLR,,0.04,WeatherDisplay:10.37,2013-05-22 22:43:00,
2013-05-22 18:45:00,74.5,58.2,28.94,NE,45,4.6,0.0,57,0.00,CLR,,0.04,WeatherDisplay:10.37,2013-05-22 22:45:00,
2013-05-22 18:46:00,74.3,58.6,28.94,NW,315,1.2,1.2,58,0.00,CLR,,0.04,WeatherDisplay:10.37,2013-05-22 22:46:00,
2013-05-22 18:47:00,74.3,58.6,28.94,NW,315,3.6,3.6,58,0.00,CLR,,0.04,WeatherDisplay:10.37,2013-05-22 22:47:00,
2013-05-22 18:48:00,74.3,58.6,28.94,ESE,112,3.5,3.5,58,0.00,CLR,,0.04,WeatherDisplay:10.37,2013-05-22 22:48:00,
2013-05-22 18:50:00,74.1,59.3,28.94,NNE,22,2.6,2.6,60,0.00,CLR,,0.04,WeatherDisplay:10.37,2013-05-22 22:50:00,
2013-05-22 18:51:00,74.1,58.9,28.94,NNE,22,2.6,2.6,59,0.00,CLR,,0.04,WeatherDisplay:10.37,2013-05-22 22:51:00,
2013-05-22 18:52:00,74.3,59.0,28.94,WNW,292,3.8,3.8,59,0.00,CLR,,0.04,WeatherDisplay:10.37,2013-05-22 22:52:00,
2013-05-22 18:53:00,74.3,59.0,28.94,NE,45,3.5,3.5,59,0.00,CLR,,0.04,WeatherDisplay:10.37,2013-05-22 22:53:00,
2013-05-22 18:55:00,74.1,58.9,28.94,NE,45,2.3,2.3,59,0.00,CLR,,0.04,WeatherDisplay:10.37,2013-05-22 22:55:00,
2013-05-22 18:56:00,73.9,59.2,28.94,NE,45,2.3,2.3,60,0.00,CLR,,0.04,WeatherDisplay:10.37,2013-05-22 22:56:00,
2013-05-22 18:57:00,73.9,59.2,28.94,NE,45,2.3,2.3,60,0.00,CLR,,0.04,WeatherDisplay:10.37,2013-05-22 22:57:00,
2013-05-22 18:58:00,73.9,58.7,28.94,NNW,338,3.6,3.6,59,0.00,CLR,,0.04,WeatherDisplay:10.37,2013-05-22 22:58:00,
2013-05-22 19:01:00,73.9,59.2,28.94,NW,315,8.1,8.1,60,0.00,CLR,,0.04,WeatherDisplay:10.37,2013-05-22 23:01:00,
2013-05-22 19:02:00,73.9,59.2,28.94,North,0,5.8,5.8,60,0.00,CLR,,0.04,WeatherDisplay:10.37,2013-05-22 23:02:00,
2013-05-22 19:03:00,73.9,59.2,28.94,NW,315,4.6,4.6,60,0.00,CLR,,0.04,WeatherDisplay:10.37,2013-05-22 23:03:00,
2013-05-22 19:06:00,73.6,59.3,28.94,North,0,3.8,3.8,61,0.00,CLR,,0.04,WeatherDisplay:10.37,2013-05-22 23:06:00,
2013-05-22 19:07:00,73.6,59.3,28.94,North,0,4.0,4.0,61,0.00,CLR,,0.04,WeatherDisplay:10.37,2013-05-22 23:07:00,
2013-05-22 19:08:00,73.6,59.3,28.94,NE,45,4.6,4.6,61,0.00,CLR,,0.04,WeatherDisplay:10.37,2013-05-22 23:08:00,
2013-05-22 19:12:00,73.6,59.3,28.94,NW,315,1.2,1.2,61,0.00,CLR,,0.04,WeatherDisplay:10.37,2013-05-22 23:12:00,
2013-05-22 19:13:00,73.6,59.8,28.94,East,90,1.2,1.2,62,0.00,CLR,,0.04,WeatherDisplay:10.37,2013-05-22 23:13:00,
2013-05-22 19:17:00,73.6,59.8,28.94,NW,315,3.3,3.3,62,0.00,CLR,,0.04,WeatherDisplay:10.37,2013-05-22 23:17:00,
2013-05-22 19:18:00,73.6,59.8,28.94,NE,45,4.0,4.0,62,0.00,CLR,,0.04,WeatherDisplay:10.37,2013-05-22 23:18:00,
2013-05-22 19:22:00,73.9,60.1,28.94,NW,315,1.2,0.0,62,0.00,CLR,,0.04,WeatherDisplay:10.37,2013-05-22 23:22:00,
2013-05-22 19:24:00,73.9,60.1,28.94,NNW,338,2.2,2.2,62,0.00,CLR,,0.04,WeatherDisplay:10.37,2013-05-22 23:24:00,
2013-05-22 19:27:00,73.8,59.9,28.94,NE,45,1.4,1.4,62,0.00,CLR,,0.04,WeatherDisplay:10.37,2013-05-22 23:27:00,
2013-05-22 19:29:00,73.6,60.2,28.94,NE,45,3.5,3.5,63,0.00,CLR,,0.04,WeatherDisplay:10.37,2013-05-22 23:29:00,
2013-05-22 19:32:00,73.4,60.0,28.94,North,0,2.9,2.9,63,0.00,CLR,,0.04,WeatherDisplay:10.37,2013-05-22 23:32:00,
2013-05-22 19:34:00,73.2,59.9,28.94,East,90,2.3,2.3,63,0.00,CLR,,0.04,WeatherDisplay:10.37,2013-05-22 23:34:00,
2013-05-22 19:37:00,72.9,59.5,28.94,North,0,3.5,3.5,63,0.00,CLR,,0.04,WeatherDisplay:10.37,2013-05-22 23:37:00,
2013-05-22 19:38:00,72.9,59.5,28.94,North,0,3.5,3.5,63,0.00,CLR,,0.04,WeatherDisplay:10.37,2013-05-22 23:38:00,
2013-05-22 19:40:00,72.5,59.2,28.94,ESE,112,3.5,3.5,63,0.00,CLR,,0.04,WeatherDisplay:10.37,2013-05-22 23:40:00,
2013-05-22 19:43:00,72.3,59.0,28.94,NW,315,2.3,2.3,63,0.00,CLR,,0.04,WeatherDisplay:10.37,2013-05-22 23:43:00,
2013-05-22 19:45:00,72.3,59.0,28.94,NE,45,2.4,2.4,63,0.00,CLR,,0.04,WeatherDisplay:10.37,2013-05-22 23:45:00,
2013-05-22 19:48:00,72.3,59.0,28.94,NNE,22,2.9,2.9,63,0.00,CLR,,0.04,WeatherDisplay:10.37,2013-05-22 23:48:00,
2013-05-22 19:50:00,72.5,59.2,28.94,WNW,292,2.6,2.6,63,0.00,CLR,,0.04,WeatherDisplay:10.37,2013-05-22 23:50:00,
2013-05-22 19:53:00,72.1,58.8,28.94,NE,45,3.5,3.5,63,0.00,CLR,,0.04,WeatherDisplay:10.37,2013-05-22 23:53:00,
2013-05-22 19:55:00,72.1,58.8,28.94,NW,315,2.3,2.3,63,0.00,CLR,,0.04,WeatherDisplay:10.37,2013-05-22 23:55:00,
2013-05-22 19:58:00,72.0,58.7,28.94,West,270,6.0,6.0,63,0.00,CLR,,0.04,WeatherDisplay:10.37,2013-05-22 23:58:00,
2013-05-22 19:59:00,72.0,58.7,28.94,South,180,5.8,5.8,63,0.00,CLR,,0.04,WeatherDisplay:10.37,2013-05-22 23:59:00,
2013-05-22 20:00:00,72.0,59.1,28.94,NW,315,2.3,0.0,64,0.00,CLR,,0.04,WeatherDisplay:10.37,2013-05-23 00:00:00,
2013-05-22 20:03:00,71.8,59.8,28.97,West,270,1.4,1.4,66,0.00,CLR,,0.04,WeatherDisplay:10.37,2013-05-23 00:03:00,
2013-05-22 20:04:00,71.8,59.8,28.97,West,270,1.4,1.4,66,0.00,CLR,,0.04,WeatherDisplay:10.37,2013-05-23 00:04:00,
2013-05-22 20:05:00,71.8,60.2,28.97,WNW,292,4.6,4.6,67,0.00,CLR,,0.04,WeatherDisplay:10.37,2013-05-23 00:05:00,
2013-05-22 20:08:00,71.4,60.3,28.97,ESE,112,1.6,1.6,68,0.00,CLR,,0.04,WeatherDisplay:10.37,2013-05-23 00:08:00,
2013-05-22 20:09:00,71.4,60.3,28.97,SE,135,3.3,3.3,68,0.00,CLR,,0.04,WeatherDisplay:10.37,2013-05-23 00:09:00,
2013-05-22 20:10:00,71.2,61.0,28.97,NW,315,3.5,3.5,70,0.00,CLR,,0.04,WeatherDisplay:10.37,2013-05-23 00:10:00,
2013-05-22 20:14:00,71.1,60.8,28.97,NW,315,2.3,2.3,70,0.00,CLR,,0.04,WeatherDisplay:10.37,2013-05-23 00:14:00,
2013-05-22 20:16:00,71.1,60.8,28.97,South,180,1.2,1.2,70,0.00,CLR,,0.04,WeatherDisplay:10.37,2013-05-23 00:16:00,
2013-05-22 20:19:00,70.9,61.0,28.97,SW,225,2.2,2.2,71,0.00,CLR,,0.04,WeatherDisplay:10.37,2013-05-23 00:19:00,
2013-05-22 20:21:00,70.9,60.6,28.97,East,90,2.3,2.3,70,0.00,CLR,,0.04,WeatherDisplay:10.37,2013-05-23 00:21:00,
2013-05-22 20:24:00,70.7,62.0,28.97,NW,315,3.6,3.6,74,0.00,CLR,,0.04,WeatherDisplay:10.37,2013-05-23 00:24:00,
2013-05-22 20:25:00,70.7,62.0,28.97,SW,225,3.5,3.5,74,0.00,CLR,,0.04,WeatherDisplay:10.37,2013-05-23 00:25:00,
2013-05-22 20:26:00,70.5,61.1,28.97,NE,45,3.5,3.5,72,0.00,CLR,,0.04,WeatherDisplay:10.37,2013-05-23 00:26:00,
2013-05-22 20:29:00,70.3,61.7,28.97,SE,135,2.4,2.4,74,0.00,CLR,,0.04,WeatherDisplay:10.37,2013-05-23 00:29:00,
2013-05-22 20:30:00,70.3,61.7,28.97,South,180,2.3,2.3,74,0.00,CLR,,0.04,WeatherDisplay:10.37,2013-05-23 00:30:00,
2013-05-22 20:31:00,70.3,61.3,28.97,SE,135,2.3,2.3,73,0.00,CLR,,0.04,WeatherDisplay:10.37,2013-05-23 00:31:00,
2013-05-22 20:34:00,70.2,60.7,28.97,North,0,2.3,2.3,72,0.00,CLR,,0.04,WeatherDisplay:10.37,2013-05-23 00:34:00,
2013-05-22 20:35:00,70.2,60.7,28.97,North,0,1.4,1.4,72,0.00,CLR,,0.04,WeatherDisplay:10.37,2013-05-23 00:35:00,
2013-05-22 20:36:00,70.0,60.5,28.97,North,0,1.4,1.4,72,0.00,CLR,,0.04,WeatherDisplay:10.37,2013-05-23 00:36:00,
2013-05-22 20:37:00,70.0,60.5,28.97,NNE,22,1.2,0.0,72,0.00,CLR,,0.04,WeatherDisplay:10.37,2013-05-23 00:37:00,
2013-05-22 20:40:00,69.8,60.4,28.97,North,0,3.5,3.5,72,0.00,CLR,,0.04,WeatherDisplay:10.37,2013-05-23 00:40:00,
2013-05-22 20:41:00,69.8,60.4,28.97,WNW,292,3.5,3.5,72,0.00,CLR,,0.04,WeatherDisplay:10.37,2013-05-23 00:41:00,
2013-05-22 20:42:00,69.8,60.4,28.97,NE,45,1.2,1.2,72,0.00,CLR,,0.04,WeatherDisplay:10.37,2013-05-23 00:42:00,
2013-05-22 20:45:00,69.8,60.4,28.97,NNW,338,2.2,2.2,72,0.00,CLR,,0.04,WeatherDisplay:10.37,2013-05-23 00:45:00,
2013-05-22 20:46:00,69.6,60.6,28.97,NW,315,2.3,2.3,73,0.00,CLR,,0.04,WeatherDisplay:10.37,2013-05-23 00:46:00,
2013-05-22 20:47:00,69.6,60.6,28.97,NW,315,1.2,1.2,73,0.00,CLR,,0.04,WeatherDisplay:10.37,2013-05-23 00:47:00,
2013-05-22 20:50:00,69.4,60.4,28.97,NE,45,2.4,2.4,73,0.00,CLR,,0.04,WeatherDisplay:10.37,2013-05-23 00:50:00,
2013-05-22 20:51:00,69.3,60.6,28.97,West,270,2.3,2.3,74,0.00,CLR,,0.04,WeatherDisplay:10.37,2013-05-23 00:51:00,
2013-05-22 20:52:00,69.3,60.6,28.97,West,270,2.3,2.3,74,0.00,CLR,,0.04,WeatherDisplay:10.37,2013-05-23 00:52:00,
2013-05-22 20:55:00,69.1,60.4,28.97,NW,315,3.5,3.5,74,0.00,CLR,,0.04,WeatherDisplay:10.37,2013-05-23 00:55:00,
2013-05-22 20:56:00,69.3,60.6,28.97,NW,315,3.6,3.6,74,0.00,CLR,,0.04,WeatherDisplay:10.37,2013-05-23 00:56:00,
2013-05-22 20:57:00,69.3,60.6,28.97,NE,45,3.5,3.5,74,0.00,CLR,,0.04,WeatherDisplay:10.37,2013-05-23 00:57:00,
2013-05-22 20:58:00,69.3,60.6,28.97,NNE,22,3.5,3.5,74,0.00,CLR,,0.04,WeatherDisplay:10.37,2013-05-23 00:58:00,
2013-05-22 21:01:00,69.1,60.4,28.97,NW,315,3.1,3.1,74,0.00,CLR,,0.04,WeatherDisplay:10.37,2013-05-23 01:01:00,
2013-05-22 21:02:00,69.1,60.4,28.97,NW,315,3.5,3.5,74,0.00,CLR,,0.04,WeatherDisplay:10.37,2013-05-23 01:02:00,
2013-05-22 21:03:00,69.3,61.0,28.97,NE,45,1.2,1.2,75,0.00,CLR,,0.04,WeatherDisplay:10.37,2013-05-23 01:03:00,
2013-05-22 21:06:00,69.3,61.0,28.97,NNE,22,1.4,1.4,75,0.00,CLR,,0.04,WeatherDisplay:10.37,2013-05-23 01:06:00,
2013-05-22 21:07:00,69.1,60.4,28.97,NE,45,1.4,0.0,74,0.00,CLR,,0.04,WeatherDisplay:10.37,2013-05-23 01:07:00,
2013-05-22 21:08:00,69.1,60.4,28.97,NE,45,0.0,0.0,74,0.00,CLR,,0.04,WeatherDisplay:10.37,2013-05-23 01:08:00,
2013-05-22 21:11:00,69.1,60.4,28.97,NW,315,3.5,3.5,74,0.00,CLR,,0.04,WeatherDisplay:10.37,2013-05-23 01:11:00,
2013-05-22 21:12:00,68.9,60.3,28.97,NNW,338,1.2,1.2,74,0.00,CLR,,0.04,WeatherDisplay:10.37,2013-05-23 01:12:00,
2013-05-22 21:14:00,68.9,60.3,28.97,North,0,1.2,0.0,74,0.00,CLR,,0.04,WeatherDisplay:10.37,2013-05-23 01:14:00,
2013-05-22 21:16:00,68.7,60.5,28.97,NW,315,2.0,2.0,75,0.00,CLR,,0.04,WeatherDisplay:10.37,2013-05-23 01:16:00,
2013-05-22 21:17:00,68.7,60.8,28.97,NE,45,2.9,2.9,76,0.00,CLR,,0.04,WeatherDisplay:10.37,2013-05-23 01:17:00,
2013-05-22 21:19:00,68.5,60.3,28.97,NW,315,1.2,0.0,75,0.00,CLR,,0.04,WeatherDisplay:10.37,2013-05-23 01:19:00,
2013-05-22 21:21:00,68.5,60.3,28.97,West,270,0.0,0.0,75,0.00,CLR,,0.04,WeatherDisplay:10.37,2013-05-23 01:21:00,
2013-05-22 21:22:00,68.5,60.3,28.97,NE,45,1.4,1.4,75,0.00,CLR,,0.04,WeatherDisplay:10.37,2013-05-23 01:22:00,
2013-05-22 21:23:00,68.5,60.3,28.97,North,0,2.9,2.9,75,0.00,CLR,,0.04,WeatherDisplay:10.37,2013-05-23 01:23:00,
2013-05-22 21:25:00,68.5,60.7,28.97,NNE,22,3.5,3.5,76,0.00,CLR,,0.04,WeatherDisplay:10.37,2013-05-23 01:25:00,
2013-05-22 21:26:00,68.5,60.7,28.97,NW,315,3.5,3.5,76,0.00,CLR,,0.04,WeatherDisplay:10.37,2013-05-23 01:26:00,
2013-05-22 21:27:00,68.5,60.7,28.97,SW,225,2.3,0.0,76,0.00,CLR,,0.04,WeatherDisplay:10.37,2013-05-23 01:27:00,
2013-05-22 21:28:00,68.5,60.7,28.97,NW,315,1.2,0.0,76,0.00,CLR,,0.04,WeatherDisplay:10.37,2013-05-23 01:28:00,
2013-05-22 21:30:00,68.4,60.5,28.97,North,0,2.3,2.3,76,0.00,CLR,,0.04,WeatherDisplay:10.37,2013-05-23 01:30:00,
2013-05-22 21:31:00,68.5,60.7,28.97,North,0,2.6,2.6,76,0.00,CLR,,0.04,WeatherDisplay:10.37,2013-05-23 01:31:00,
2013-05-22 21:32:00,68.5,60.7,28.97,North,0,2.3,2.3,76,0.00,CLR,,0.04,WeatherDisplay:10.37,2013-05-23 01:32:00,
2013-05-22 21:33:00,68.5,61.0,28.97,NE,45,1.4,1.4,77,0.00,CLR,,0.04,WeatherDisplay:10.37,2013-05-23 01:33:00,
2013-05-22 21:34:00,68.5,61.0,28.97,NE,45,1.4,1.4,77,0.00,CLR,,0.04,WeatherDisplay:10.37,2013-05-23 01:34:00,
2013-05-22 21:35:00,68.4,60.5,28.97,NE,45,1.2,0.0,76,0.00,CLR,,0.04,WeatherDisplay:10.37,2013-05-23 01:35:00,
2013-05-22 21:36:00,68.4,60.5,28.97,North,0,2.3,2.3,76,0.00,CLR,,0.04,WeatherDisplay:10.37,2013-05-23 01:36:00,
2013-05-22 21:37:00,68.4,60.5,28.97,North,0,2.6,2.6,76,0.00,CLR,,0.04,WeatherDisplay:10.37,2013-05-23 01:37:00,
2013-05-22 21:38:00,68.4,60.9,28.97,NE,45,2.3,2.3,77,0.00,CLR,,0.04,WeatherDisplay:10.37,2013-05-23 01:38:00,
2013-05-22 21:39:00,68.4,60.9,28.97,NE,45,2.3,2.3,77,0.00,CLR,,0.04,WeatherDisplay:10.37,2013-05-23 01:39:00,
2013-05-22 21:40:00,68.4,60.9,28.97,North,0,3.5,3.5,77,0.00,CLR,,0.04,WeatherDisplay:10.37,2013-05-23 01:40:00,
2013-05-22 21:41:00,68.4,60.9,28.97,North,0,3.5,3.5,77,0.00,CLR,,0.04,WeatherDisplay:10.37,2013-05-23 01:41:00,
2013-05-22 21:42:00,68.4,61.2,28.97,NNE,22,3.8,3.8,78,0.00,CLR,,0.04,WeatherDisplay:10.37,2013-05-23 01:42:00,
2013-05-22 21:43:00,68.4,61.6,28.97,NE,45,4.3,4.3,79,0.00,CLR,,0.04,WeatherDisplay:10.37,2013-05-23 01:43:00,
2013-05-22 21:44:00,68.4,61.6,28.97,ENE,68,4.6,0.0,79,0.00,CLR,,0.04,WeatherDisplay:10.37,2013-05-23 01:44:00,
2013-05-22 21:45:00,68.4,61.2,28.97,NE,45,1.2,1.2,78,0.00,CLR,,0.04,WeatherDisplay:10.37,2013-05-23 01:45:00,
2013-05-22 21:46:00,68.4,61.2,28.97,North,0,2.4,2.4,78,0.00,CLR,,0.04,WeatherDisplay:10.37,2013-05-23 01:46:00,
2013-05-22 21:47:00,68.2,61.1,28.97,North,0,2.3,0.0,78,0.00,CLR,,0.04,WeatherDisplay:10.37,2013-05-23 01:47:00,
2013-05-22 21:48:00,68.2,61.4,28.97,North,0,1.6,1.6,79,0.00,CLR,,0.04,WeatherDisplay:10.37,2013-05-23 01:48:00,
2013-05-22 21:49:00,68.2,61.4,28.97,NE,45,2.9,2.9,79,0.00,CLR,,0.04,WeatherDisplay:10.37,2013-05-23 01:49:00,
2013-05-22 21:51:00,68.2,61.4,28.97,North,0,2.4,2.4,79,0.00,CLR,,0.04,WeatherDisplay:10.37,2013-05-23 01:51:00,
2013-05-22 21:53:00,68.0,61.2,28.97,North,0,2.9,2.9,79,0.00,CLR,,0.04,WeatherDisplay:10.37,2013-05-23 01:53:00,
2013-05-22 21:54:00,68.0,61.2,28.97,NE,45,3.3,3.3,79,0.00,CLR,,0.04,WeatherDisplay:10.37,2013-05-23 01:54:00,
2013-05-22 21:56:00,68.0,61.6,28.97,NE,45,4.6,4.6,80,0.00,CLR,,0.04,WeatherDisplay:10.37,2013-05-23 01:56:00,
2013-05-22 21:58:00,68.0,61.6,28.97,North,0,3.5,3.5,80,0.00,CLR,,0.04,WeatherDisplay:10.37,2013-05-23 01:58:00,
2013-05-22 21:59:00,68.0,61.6,28.97,North,0,3.5,3.5,80,0.00,CLR,,0.04,WeatherDisplay:10.37,2013-05-23 01:59:00,
2013-05-22 22:01:00,67.8,61.4,28.97,NE,45,2.9,2.9,80,0.00,CLR,,0.04,WeatherDisplay:10.37,2013-05-23 02:01:00,
2013-05-22 22:03:00,67.6,61.2,28.97,NW,315,5.9,5.9,80,0.00,CLR,,0.04,WeatherDisplay:10.37,2013-05-23 02:03:00,
2013-05-22 22:04:00,67.6,61.2,28.97,West,270,5.8,0.0,80,0.00,CLR,,0.04,WeatherDisplay:10.37,2013-05-23 02:04:00,
2013-05-22 22:06:00,67.6,61.6,28.97,North,0,3.5,3.5,81,0.00,CLR,,0.04,WeatherDisplay:10.37,2013-05-23 02:06:00,
2013-05-22 22:07:00,67.6,61.6,28.97,NW,315,3.5,3.5,81,0.00,CLR,,0.04,WeatherDisplay:10.37,2013-05-23 02:07:00,
2013-05-22 22:09:00,67.5,61.4,28.97,NE,45,2.3,0.0,81,0.00,CLR,,0.04,WeatherDisplay:10.37,2013-05-23 02:09:00,
2013-05-22 22:10:00,67.5,61.1,28.97,North,0,1.2,1.2,80,0.00,CLR,,0.04,WeatherDisplay:10.37,2013-05-23 02:10:00,
2013-05-22 22:11:00,67.5,61.1,28.97,NE,45,2.3,2.3,80,0.00,CLR,,0.04,WeatherDisplay:10.37,2013-05-23 02:11:00,
2013-05-22 22:12:00,67.5,61.4,28.97,North,0,2.3,0.0,81,0.00,CLR,,0.04,WeatherDisplay:10.37,2013-05-23 02:12:00,
2013-05-22 22:14:00,67.3,61.2,28.97,NW,315,2.0,2.0,81,0.00,CLR,,0.04,WeatherDisplay:10.37,2013-05-23 02:14:00,
2013-05-22 22:15:00,67.3,61.6,28.97,ESE,112,2.3,2.3,82,0.00,CLR,,0.04,WeatherDisplay:10.37,2013-05-23 02:15:00,
2013-05-22 22:16:00,67.3,61.6,28.97,North,0,1.4,1.4,82,0.00,CLR,,0.04,WeatherDisplay:10.37,2013-05-23 02:16:00,
2013-05-22 22:17:00,67.3,61.2,28.97,North,0,1.6,1.6,81,0.00,CLR,,0.04,WeatherDisplay:10.37,2013-05-23 02:17:00,
2013-05-22 22:19:00,67.1,61.4,28.97,North,0,2.3,2.3,82,0.00,CLR,,0.04,WeatherDisplay:10.37,2013-05-23 02:19:00,
2013-05-22 22:20:00,67.1,61.1,28.97,NW,315,3.5,3.5,81,0.00,CLR,,0.04,WeatherDisplay:10.37,2013-05-23 02:20:00,
2013-05-22 22:21:00,67.1,61.1,28.97,North,0,3.5,3.5,81,0.00,CLR,,0.04,WeatherDisplay:10.37,2013-05-23 02:21:00,
2013-05-22 22:23:00,67.1,61.4,28.97,NW,315,2.3,2.3,82,0.00,CLR,,0.04,WeatherDisplay:10.37,2013-05-23 02:23:00,
2013-05-22 22:25:00,66.9,60.9,28.97,NNE,22,3.5,3.5,81,0.00,CLR,,0.04,WeatherDisplay:10.37,2013-05-23 02:25:00,
2013-05-22 22:26:00,66.9,60.9,28.97,NNE,22,3.5,3.5,81,0.00,CLR,,0.04,WeatherDisplay:10.37,2013-05-23 02:26:00,
2013-05-22 22:27:00,66.9,60.9,28.97,NNW,338,3.5,3.5,81,0.00,CLR,,0.04,WeatherDisplay:10.37,2013-05-23 02:27:00,
2013-05-22 22:28:00,66.9,60.9,28.97,NE,45,3.5,3.5,81,0.00,CLR,,0.04,WeatherDisplay:10.37,2013-05-23 02:28:00,
2013-05-22 22:30:00,66.9,60.9,28.97,NW,315,2.3,2.3,81,0.00,CLR,,0.04,WeatherDisplay:10.37,2013-05-23 02:30:00,
2013-05-22 22:31:00,66.9,60.9,28.97,North,0,3.3,3.3,81,0.00,CLR,,0.04,WeatherDisplay:10.37,2013-05-23 02:31:00,
2013-05-22 22:32:00,66.9,60.9,28.97,NW,315,3.5,3.5,81,0.00,CLR,,0.04,WeatherDisplay:10.37,2013-05-23 02:32:00,
2013-05-22 22:33:00,66.9,60.9,28.97,North,0,3.8,3.8,81,0.00,CLR,,0.04,WeatherDisplay:10.37,2013-05-23 02:33:00,
2013-05-22 22:35:00,66.7,60.4,28.97,North,0,2.3,2.3,80,0.00,CLR,,0.04,WeatherDisplay:10.37,2013-05-23 02:35:00,
2013-05-22 22:36:00,66.7,60.4,28.97,North,0,2.3,2.3,80,0.00,CLR,,0.04,WeatherDisplay:10.37,2013-05-23 02:36:00,
2013-05-22 22:37:00,66.7,60.4,28.97,NNE,22,3.5,3.5,80,0.00,CLR,,0.04,WeatherDisplay:10.37,2013-05-23 02:37:00,
2013-05-22 22:38:00,66.7,60.4,28.97,NNE,22,3.5,3.5,80,0.00,CLR,,0.04,WeatherDisplay:10.37,2013-05-23 02:38:00,
2013-05-22 22:40:00,66.6,60.5,28.97,NNE,22,2.3,2.3,81,0.00,CLR,,0.04,WeatherDisplay:10.37,2013-05-23 02:40:00,
2013-05-22 22:41:00,66.6,60.5,28.97,NW,315,2.3,2.3,81,0.00,CLR,,0.04,WeatherDisplay:10.37,2013-05-23 02:41:00,
2013-05-22 22:42:00,66.6,60.5,28.97,NW,315,2.3,2.3,81,0.00,CLR,,0.04,WeatherDisplay:10.37,2013-05-23 02:42:00,
2013-05-22 22:43:00,66.6,60.5,28.97,North,0,2.3,2.3,81,0.00,CLR,,0.04,WeatherDisplay:10.37,2013-05-23 02:43:00,
2013-05-22 22:45:00,66.4,60.4,28.97,NE,45,1.4,1.4,81,0.00,CLR,,0.04,WeatherDisplay:10.37,2013-05-23 02:45:00,
2013-05-22 22:47:00,66.4,60.4,28.97,NE,45,1.2,0.0,81,0.00,CLR,,0.04,WeatherDisplay:10.37,2013-05-23 02:47:00,
2013-05-22 22:49:00,66.2,60.2,28.97,NE,45,1.4,1.4,81,0.00,CLR,,0.04,WeatherDisplay:10.37,2013-05-23 02:49:00,
2013-05-22 22:50:00,66.2,60.2,28.97,NNW,338,2.3,2.3,81,0.00,CLR,,0.04,WeatherDisplay:10.37,2013-05-23 02:50:00,
2013-05-22 22:52:00,66.2,60.2,28.97,North,0,2.3,2.3,81,0.00,CLR,,0.04,WeatherDisplay:10.37,2013-05-23 02:52:00,
2013-05-22 22:54:00,66.0,60.4,28.97,NW,315,2.4,2.4,82,0.00,CLR,,0.04,WeatherDisplay:10.37,2013-05-23 02:54:00,
2013-05-22 22:56:00,66.0,60.4,28.97,NW,315,2.3,2.3,82,0.00,CLR,,0.04,WeatherDisplay:10.37,2013-05-23 02:56:00,
2013-05-22 22:57:00,65.8,60.2,28.97,NNE,22,2.3,2.3,82,0.00,CLR,,0.04,WeatherDisplay:10.37,2013-05-23 02:57:00,
2013-05-22 22:58:00,65.8,60.2,28.97,NNE,22,2.3,2.3,82,0.00,CLR,,0.04,WeatherDisplay:10.37,2013-05-23 02:58:00,
2013-05-22 22:59:00,65.8,60.2,28.97,North,0,2.4,2.4,82,0.00,CLR,,0.04,WeatherDisplay:10.37,2013-05-23 02:59:00,
2013-05-22 23:01:00,65.8,60.2,28.97,North,0,2.3,2.3,82,0.00,CLR,,0.04,WeatherDisplay:10.37,2013-05-23 03:01:00,
2013-05-22 23:02:00,65.8,60.2,28.97,NNE,22,1.6,1.6,82,0.00,CLR,,0.04,WeatherDisplay:10.37,2013-05-23 03:02:00,
2013-05-22 23:03:00,65.8,60.2,28.97,NNE,22,1.6,1.6,82,0.00,CLR,,0.04,WeatherDisplay:10.37,2013-05-23 03:03:00,
2013-05-22 23:05:00,65.7,60.0,28.97,West,270,1.2,0.0,82,0.00,CLR,,0.04,WeatherDisplay:10.37,2013-05-23 03:05:00,
2013-05-22 23:06:00,65.7,60.0,28.97,North,0,1.4,1.4,82,0.00,CLR,,0.04,WeatherDisplay:10.37,2013-05-23 03:06:00,
2013-05-22 23:08:00,65.7,60.0,28.97,NNE,22,1.2,1.2,82,0.00,CLR,,0.04,WeatherDisplay:10.37,2013-05-23 03:08:00,
2013-05-22 23:09:00,65.7,60.0,28.97,NNW,338,1.2,1.2,82,0.00,CLR,,0.04,WeatherDisplay:10.37,2013-05-23 03:09:00,
2013-05-22 23:10:00,65.7,60.0,28.97,North,0,1.6,1.6,82,0.00,CLR,,0.04,WeatherDisplay:10.37,2013-05-23 03:10:00,
2013-05-22 23:11:00,65.7,60.0,28.97,NE,45,1.2,1.2,82,0.00,CLR,,0.04,WeatherDisplay:10.37,2013-05-23 03:11:00,
2013-05-22 23:13:00,65.7,60.0,28.97,NE,45,2.0,2.0,82,0.00,CLR,,0.04,WeatherDisplay:10.37,2013-05-23 03:13:00,
2013-05-22 23:14:00,65.5,60.2,28.97,NE,45,2.3,2.3,83,0.00,CLR,,0.04,WeatherDisplay:10.37,2013-05-23 03:14:00,
2013-05-22 23:16:00,65.5,60.2,28.97,North,0,1.2,1.2,83,0.00,CLR,,0.04,WeatherDisplay:10.37,2013-05-23 03:16:00,
2013-05-22 23:18:00,65.5,59.8,28.97,NW,315,1.2,1.2,82,0.00,CLR,,0.04,WeatherDisplay:10.37,2013-05-23 03:18:00,
2013-05-22 23:19:00,65.5,60.2,28.97,North,0,3.1,3.1,83,0.00,CLR,,0.04,WeatherDisplay:10.37,2013-05-23 03:19:00,
2013-05-22 23:21:00,65.7,60.4,28.97,North,0,1.2,1.2,83,0.00,CLR,,0.04,WeatherDisplay:10.37,2013-05-23 03:21:00,
2013-05-22 23:23:00,65.7,60.0,28.97,NE,45,1.4,1.4,82,0.00,CLR,,0.04,WeatherDisplay:10.37,2013-05-23 03:23:00,
2013-05-22 23:24:00,65.7,60.0,28.97,East,90,1.4,1.4,82,0.00,CLR,,0.04,WeatherDisplay:10.37,2013-05-23 03:24:00,
2013-05-22 23:26:00,65.7,60.0,28.97,NW,315,2.3,2.3,82,0.00,CLR,,0.04,WeatherDisplay:10.37,2013-05-23 03:26:00,
2013-05-22 23:27:00,65.7,60.0,28.97,NW,315,2.3,2.3,82,0.00,CLR,,0.04,WeatherDisplay:10.37,2013-05-23 03:27:00,
2013-05-22 23:28:00,65.7,60.0,28.97,North,0,2.4,2.4,82,0.00,CLR,,0.04,WeatherDisplay:10.37,2013-05-23 03:28:00,
2013-05-22 23:29:00,65.7,60.0,28.97,NW,315,2.9,2.9,82,0.00,CLR,,0.04,WeatherDisplay:10.37,2013-05-23 03:29:00,
2013-05-22 23:31:00,65.8,60.2,28.97,East,90,3.5,3.5,82,0.00,CLR,,0.04,WeatherDisplay:10.37,2013-05-23 03:31:00,
2013-05-22 23:32:00,65.8,60.2,28.97,East,90,3.5,3.5,82,0.00,CLR,,0.04,WeatherDisplay:10.37,2013-05-23 03:32:00,
2013-05-22 23:34:00,65.8,60.2,28.97,NNE,22,2.3,2.3,82,0.00,CLR,,0.04,WeatherDisplay:10.37,2013-05-23 03:34:00,
2013-05-22 23:36:00,65.8,60.2,28.97,East,90,4.6,4.6,82,0.00,CLR,,0.04,WeatherDisplay:10.37,2013-05-23 03:36:00,
2013-05-22 23:37:00,65.8,60.2,28.97,NE,45,1.4,1.4,82,0.00,CLR,,0.04,WeatherDisplay:10.37,2013-05-23 03:37:00,
2013-05-22 23:39:00,65.8,60.5,28.97,North,0,1.2,0.0,83,0.00,CLR,,0.04,WeatherDisplay:10.37,2013-05-23 03:39:00,
2013-05-22 23:40:00,65.8,60.5,28.97,ENE,68,0.0,0.0,83,0.00,CLR,,0.04,WeatherDisplay:10.37,2013-05-23 03:40:00,
2013-05-22 23:42:00,65.8,60.5,28.97,NW,315,2.3,2.3,83,0.00,CLR,,0.04,WeatherDisplay:10.37,2013-05-23 03:42:00,
2013-05-22 23:44:00,65.8,60.5,28.97,NNW,338,2.9,2.9,83,0.00,CLR,,0.04,WeatherDisplay:10.37,2013-05-23 03:44:00,
2013-05-22 23:45:00,65.8,60.5,28.97,North,0,3.8,3.8,83,0.00,CLR,,0.04,WeatherDisplay:10.37,2013-05-23 03:45:00,
2013-05-22 23:47:00,65.8,60.5,28.97,NW,315,2.3,2.3,83,0.00,CLR,,0.04,WeatherDisplay:10.37,2013-05-23 03:47:00,
2013-05-22 23:48:00,65.8,60.5,28.97,North,0,2.3,2.3,83,0.00,CLR,,0.04,WeatherDisplay:10.37,2013-05-23 03:48:00,
2013-05-22 23:49:00,65.7,60.0,28.97,NW,315,1.2,1.2,82,0.00,CLR,,0.04,WeatherDisplay:10.37,2013-05-23 03:49:00,
2013-05-22 23:50:00,65.7,60.0,28.97,NW,315,2.6,2.6,82,0.00,CLR,,0.04,WeatherDisplay:10.37,2013-05-23 03:50:00,
2013-05-22 23:52:00,65.8,60.5,28.97,NNW,338,2.3,2.3,83,0.00,CLR,,0.04,WeatherDisplay:10.37,2013-05-23 03:52:00,
2013-05-22 23:53:00,65.8,60.5,28.97,NNW,338,2.3,2.3,83,0.00,CLR,,0.04,WeatherDisplay:10.37,2013-05-23 03:53:00,
2013-05-22 23:55:00,65.7,60.4,28.97,ENE,68,0.0,0.0,83,0.00,CLR,,0.04,WeatherDisplay:10.37,2013-05-23 03:55:00,
2013-05-22 23:56:00,65.7,60.4,28.97,NW,315,0.0,0.0,83,0.00,CLR,,0.04,WeatherDisplay:10.37,2013-05-23 03:56:00,
2013-05-22 23:57:00,65.7,60.0,28.97,NE,45,2.3,2.3,82,0.00,CLR,,0.04,WeatherDisplay:10.37,2013-05-23 03:57:00,
2013-05-22 23:58:00,65.7,60.0,28.97,NE,45,2.3,2.3,82,0.00,CLR,,0.04,WeatherDisplay:10.37,2013-05-23 03:58:00,